M I D A S
Marine Information and Data Acquisition System
Tripno 746 of the Zeeleeuw from 2004-07-12 06:20:44 to 2004-07-12 15:40:41
Back to CruiseResearch ActivitiesStationsMapUnderway DataData graphs

EquipmentUnitsComment
TimeDGPSUTC
LatitudeDGPSDM.mWGS84
LongitudeDGPSDM.mWGS84
TemperatureSBE03/SBE38deg celciusITS90
ConductivitySBE21S/mITS90
SalinitySBE21 Practical Salinity Units
ChlorophylAChelsea fluorimeterg/lCalibrated in Aceton
Missing or incorrect values are displayed as -999
Sea surface data collected by the RV Zeeleeuw from 2004-07-12 06:20:44 to 2004-07-12 15:40:41
                                                                                    Next 1000 lines
Time Latitude Longitude Temperature Conductivity Salinity ChlorophylA
2004-07-12 06:20:52 51°13.595 2°56.096 19.51558 0.058699 0.32277 -0.781249
2004-07-12 06:20:56 51°13.595 2°56.096 19.517088 0.058595 0.322193 -0.781249
2004-07-12 06:21:02 51°13.595 2°56.096 19.517088 0.058595 0.322193 -0.781249
2004-07-12 06:21:07 51°13.595 2°56.095 19.512646 0.058699 0.322781 -0.781249
2004-07-12 06:21:12 51°13.595 2°56.094 19.498913 0.058595 0.322198 -0.74754
2004-07-12 06:21:17 51°13.595 2°56.092 19.512198 0.058699 0.322786 -0.74754
2004-07-12 06:21:22 51°13.596 2°56.09 19.508694 0.058699 0.322786 -0.71383
2004-07-12 06:21:27 51°13.596 2°56.087 19.525114 0.058595 0.322198 -0.781249
2004-07-12 06:21:31 51°13.597 2°56.084 19.525114 0.058595 0.322198 -0.781249
2004-07-12 06:21:37 51°13.598 2°56.079 19.516354 0.058595 0.322203 -0.74754
2004-07-12 06:21:42 51°13.599 2°56.074 19.519736 0.058595 0.322203 -0.781249
2004-07-12 06:21:47 51°13.601 2°56.069 19.510202 0.058595 0.322198 -0.74754
2004-07-12 06:21:53 51°13.602 2°56.063 19.517169 0.058595 0.322203 -0.74754
2004-07-12 06:21:58 51°13.604 2°56.057 19.518228 0.058595 0.322203 -0.781249
2004-07-12 06:22:02 51°13.605 2°56.052 19.518228 0.058595 0.322203 -0.781249
2004-07-12 06:22:07 51°13.607 2°56.046 19.51611 0.058595 0.322203 -0.781249
2004-07-12 06:22:13 51°13.61 2°56.038 19.515947 0.058595 0.322208 -0.781249
2004-07-12 06:22:17 51°13.611 2°56.033 19.516273 0.058595 0.322208 -0.74754
2004-07-12 06:22:22 51°13.614 2°56.025 19.519288 0.058595 0.322208 -0.781249
2004-07-12 06:22:28 51°13.617 2°56.016 19.52104 0.058595 0.322214 -0.71383
2004-07-12 06:22:32 51°13.619 2°56.01 19.52104 0.058595 0.322214 -0.71383
2004-07-12 06:22:37 51°13.621 2°56.002 19.518391 0.058595 0.322208 -0.74754
2004-07-12 06:22:42 51°13.624 2°55.993 19.51831 0.058595 0.322214 -0.74754
2004-07-12 06:22:47 51°13.626 2°55.985 19.52491 0.058595 0.322219 -0.74754
2004-07-12 06:22:53 51°13.63 2°55.974 19.530043 0.058595 0.322219 -0.74754
2004-07-12 06:22:58 51°13.632 2°55.966 19.531876 0.058595 0.322219 -0.781249
2004-07-12 06:23:02 51°13.634 2°55.959 19.531876 0.058595 0.322219 -0.781249
2004-07-12 06:23:08 51°13.638 2°55.949 19.531632 0.058595 0.322219 -0.74754
2004-07-12 06:23:13 51°13.641 2°55.94 19.523606 0.058595 0.322224 -0.74754
2004-07-12 06:23:17 51°13.643 2°55.933 19.528617 0.058595 0.322219 -0.74754
2004-07-12 06:23:22 51°13.646 2°55.924 19.530124 0.058595 0.322224 -0.74754
2004-07-12 06:23:28 51°13.65 2°55.913 19.52658 0.058595 0.322224 -0.781249
2004-07-12 06:23:33 51°13.653 2°55.905 19.52658 0.058595 0.322224 -0.781249
2004-07-12 06:23:37 51°13.656 2°55.897 19.528821 0.058595 0.322224 -0.74754
2004-07-12 06:23:42 51°13.659 2°55.888 19.526621 0.058595 0.322229 -0.781249
2004-07-12 06:23:48 51°13.663 2°55.877 19.528902 0.058699 0.322823 -0.74754
2004-07-12 06:23:52 51°13.665 2°55.869 19.53208 0.058595 0.322229 -0.74754
2004-07-12 06:23:57 51°13.668 2°55.86 19.532243 0.058595 0.322229 -0.74754
2004-07-12 06:24:02 51°13.671 2°55.851 19.532243 0.058595 0.322229 -0.74754
2004-07-12 06:24:08 51°13.674 2°55.84 19.533139 0.058595 0.322229 -0.74754
2004-07-12 06:24:13 51°13.677 2°55.832 19.537457 0.058595 0.322229 -0.74754
2004-07-12 06:24:18 51°13.679 2°55.824 19.534646 0.058595 0.32224 -0.781249
2004-07-12 06:24:22 51°13.681 2°55.817 19.524666 0.058595 0.32224 -0.781249
2004-07-12 06:24:27 51°13.683 2°55.81 19.524462 0.058595 0.322229 -0.74754
2004-07-12 06:24:32 51°13.685 2°55.802 19.524462 0.058595 0.322229 -0.74754
2004-07-12 06:24:37 51°13.687 2°55.794 19.530124 0.058595 0.32224 -0.781249
2004-07-12 06:24:42 51°13.689 2°55.787 19.532161 0.058595 0.32224 -0.74754
2004-07-12 06:24:47 51°13.69 2°55.779 19.534646 0.058595 0.322245 -0.74754
2004-07-12 06:24:53 51°13.692 2°55.77 19.534728 0.058595 0.322245 -0.74754
2004-07-12 06:24:57 51°13.693 2°55.763 19.538149 0.058595 0.322245 -0.74754
2004-07-12 06:25:02 51°13.694 2°55.756 19.538149 0.058595 0.322245 -0.74754
2004-07-12 06:25:07 51°13.695 2°55.749 19.537212 0.058595 0.322245 -0.74754
2004-07-12 06:25:13 51°13.696 2°55.742 19.539045 0.058699 0.322839 -0.74754
2004-07-12 06:25:18 51°13.696 2°55.739 19.542018 0.058595 0.32225 -0.71383
2004-07-12 06:25:22 51°13.697 2°55.737 19.561729 0.058595 0.322245 -0.74754
2004-07-12 06:25:28 51°13.697 2°55.737 19.576549 0.058595 0.322245 -0.71383
2004-07-12 06:25:33 51°13.697 2°55.738 19.576549 0.058595 0.322245 -0.71383
2004-07-12 06:25:37 51°13.698 2°55.74 19.578096 0.058595 0.32225 -0.74754
2004-07-12 06:25:42 51°13.699 2°55.743 19.581189 0.058595 0.322255 -0.781249
2004-07-12 06:25:47 51°13.701 2°55.747 19.584609 0.058595 0.322266 -0.74754
2004-07-12 06:25:53 51°13.703 2°55.751 19.552363 0.058595 0.322271 -0.781249
2004-07-12 06:25:56 51°13.703 2°55.752 19.517577 0.058595 0.322282 -0.781249
2004-07-12 06:26:02 51°13.704 2°55.754 19.517577 0.058595 0.322282 -0.781249
2004-07-12 06:26:07 51°13.704 2°55.755 19.539493 0.058595 0.322287 -0.781249
2004-07-12 06:26:12 51°13.703 2°55.754 19.521651 0.058595 0.322292 -0.74754
2004-07-12 06:26:17 51°13.702 2°55.753 19.521651 0.058595 0.322276 -0.781249
2004-07-12 06:26:22 51°13.701 2°55.752 19.537986 0.058595 0.322271 -0.74754
2004-07-12 06:26:27 51°13.699 2°55.75 19.530491 0.058595 0.322266 -0.74754
2004-07-12 06:26:32 51°13.698 2°55.748 19.530491 0.058595 0.322266 -0.74754
2004-07-12 06:26:38 51°13.695 2°55.746 19.546784 0.058595 0.322261 -0.74754
2004-07-12 06:26:42 51°13.695 2°55.745 19.548209 0.058595 0.322261 -0.74754
2004-07-12 06:26:47 51°13.694 2°55.746 19.558716 0.058595 0.322261 -0.74754
2004-07-12 06:26:52 51°13.695 2°55.746 19.595924 0.058595 0.322261 -0.74754
2004-07-12 06:26:57 51°13.696 2°55.747 19.585708 0.058595 0.322261 -0.781249
2004-07-12 06:27:02 51°13.699 2°55.749 19.585708 0.058595 0.322261 -0.781249
2004-07-12 06:27:06 51°13.701 2°55.749 19.611469 0.058595 0.322266 -0.781249
2004-07-12 06:27:12 51°13.705 2°55.75 19.617531 0.058595 0.322276 -0.781249
2004-07-12 06:27:18 51°13.71 2°55.749 19.616392 0.058595 0.322282 -0.781249
2004-07-12 06:27:22 51°13.714 2°55.747 19.587743 0.058595 0.322292 -0.781249
2004-07-12 06:27:26 51°13.717 2°55.745 19.58933 0.058595 0.322292 -0.781249
2004-07-12 06:27:32 51°13.723 2°55.741 19.58933 0.058595 0.322292 -0.781249
2004-07-12 06:27:37 51°13.728 2°55.737 19.581922 0.058595 0.322297 -0.781249
2004-07-12 06:27:42 51°13.733 2°55.732 19.555295 0.058595 0.322297 -0.781249
2004-07-12 06:27:47 51°13.738 2°55.726 19.554033 0.058595 0.322292 -0.781249
2004-07-12 06:27:52 51°13.744 2°55.719 19.543688 0.058595 0.322282 -0.71383
2004-07-12 06:27:56 51°13.749 2°55.714 19.543892 0.058595 0.322276 -0.74754
2004-07-12 06:28:02 51°13.757 2°55.705 19.543892 0.058595 0.322276 -0.74754
2004-07-12 06:28:05 51°13.761 2°55.701 19.544625 0.058595 0.322271 -0.74754
2004-07-12 06:28:14 51°13.773 2°55.688 19.551589 0.058595 0.322271 -0.74754
2004-07-12 06:28:20 51°13.782 2°55.679 19.55053 0.058595 0.322271 -0.781249
2004-07-12 06:28:24 51°13.788 2°55.672 19.544788 0.058595 0.322271 -0.74754
2004-07-12 06:28:28 51°13.795 2°55.666 19.545847 0.058595 0.322276 -0.781249
2004-07-12 06:28:34 51°13.804 2°55.656 19.546906 0.058595 0.322287 -0.781249
2004-07-12 06:28:37 51°13.809 2°55.652 19.538353 0.058595 0.322287 -0.74754
2004-07-12 06:28:44 51°13.821 2°55.641 19.538353 0.058595 0.322287 -0.74754
2004-07-12 06:28:49 51°13.83 2°55.633 19.539045 0.058595 0.322292 -0.781249
2004-07-12 06:28:54 51°13.839 2°55.626 19.542915 0.058595 0.322297 -0.74754
2004-07-12 06:28:59 51°13.848 2°55.619 19.555376 0.058595 0.322297 -0.74754
2004-07-12 06:29:04 51°13.857 2°55.611 19.544625 0.058595 0.322303 -0.74754
2004-07-12 06:29:09 51°13.866 2°55.604 19.541693 0.058595 0.322303 -0.74754
2004-07-12 06:29:14 51°13.875 2°55.596 19.541693 0.058595 0.322303 -0.74754
2004-07-12 06:29:19 51°13.885 2°55.588 19.546173 0.058595 0.322308 -0.74754
2004-07-12 06:29:24 51°13.894 2°55.581 19.555091 0.058595 0.322313 -0.74754
2004-07-12 06:29:29 51°13.904 2°55.574 19.539045 0.058595 0.322318 -0.74754
2004-07-12 06:29:33 51°13.912 2°55.568 19.542507 0.058595 0.322318 -0.74754
2004-07-12 06:29:39 51°13.924 2°55.56 19.539819 0.058595 0.322318 -0.781249
2004-07-12 06:29:44 51°13.934 2°55.552 19.539819 0.058595 0.322318 -0.781249
2004-07-12 06:29:48 51°13.942 2°55.547 19.53322 0.058595 0.322318 -0.74754
2004-07-12 06:29:54 51°13.954 2°55.539 19.554643 0.058595 0.322318 -0.781249
2004-07-12 06:29:57 51°13.96 2°55.535 19.549024 0.058595 0.322329 -0.781249
2004-07-12 06:30:04 51°13.974 2°55.525 19.561892 0.058595 0.322329 -0.74754
2004-07-12 06:30:09 51°13.984 2°55.518 19.550327 0.058595 0.322329 -0.781249
2004-07-12 06:30:14 51°13.995 2°55.511 19.550327 0.058595 0.322329 -0.781249
2004-07-12 06:30:19 51°14.005 2°55.504 19.544788 0.058595 0.322329 -0.74754
2004-07-12 06:30:24 51°14.015 2°55.497 19.554725 0.058595 0.322329 -0.74754
2004-07-12 06:30:29 51°14.026 2°55.491 19.552363 0.058595 0.322329 -0.71383
2004-07-12 06:30:33 51°14.034 2°55.485 19.568895 0.058595 0.322329 -0.781249
2004-07-12 06:30:39 51°14.046 2°55.476 19.557494 0.058595 0.322329 -0.74754
2004-07-12 06:30:44 51°14.057 2°55.469 19.557494 0.058595 0.322329 -0.74754
2004-07-12 06:30:48 51°14.066 2°55.462 19.558512 0.058595 0.322329 -0.74754
2004-07-12 06:30:52 51°14.074 2°55.456 19.568325 0.058595 0.322334 -0.74754
2004-07-12 06:30:56 51°14.083 2°55.45 19.560833 0.058595 0.322339 -0.74754
2004-07-12 06:31:04 51°14.1 2°55.437 19.554643 0.058595 0.322344 -0.781249
2004-07-12 06:31:09 51°14.111 2°55.429 19.568732 0.058595 0.322344 -0.781249
2004-07-12 06:31:14 51°14.123 2°55.42 19.568732 0.058595 0.322344 -0.781249
2004-07-12 06:31:19 51°14.134 2°55.411 19.565515 0.058595 0.32235 -0.781249
2004-07-12 06:31:22 51°14.142 2°55.405 19.567633 0.058595 0.32235 -0.71383
2004-07-12 06:31:29 51°14.158 2°55.391 19.574676 0.058595 0.32235 -0.781249
2004-07-12 06:31:34 51°14.17 2°55.379 19.568569 0.058595 0.32235 -0.74754
2004-07-12 06:31:39 51°14.182 2°55.367 19.586033 0.058595 0.32236 -0.74754
2004-07-12 06:31:44 51°14.193 2°55.353 19.586033 0.058595 0.32236 -0.74754
2004-07-12 06:31:48 51°14.202 2°55.342 19.567714 0.058595 0.322355 -0.74754
2004-07-12 06:31:54 51°14.216 2°55.323 19.57036 0.058595 0.32236 -0.74754
2004-07-12 06:31:59 51°14.227 2°55.307 19.555621 0.058595 0.32236 -0.74754
2004-07-12 06:32:04 51°14.238 2°55.29 19.567796 0.058595 0.322365 -0.781249
2004-07-12 06:32:09 51°14.249 2°55.274 19.559245 0.058595 0.322365 -0.74754
2004-07-12 06:32:13 51°14.258 2°55.26 19.559245 0.058595 0.322365 -0.74754
2004-07-12 06:32:16 51°14.264 2°55.249 19.554643 0.058595 0.322365 -0.74754
2004-07-12 06:32:24 51°14.28 2°55.218 19.599505 0.058595 0.322371 -0.71383
2004-07-12 06:32:29 51°14.29 2°55.199 19.509142 0.058595 0.322365 -0.74754
2004-07-12 06:32:34 51°14.301 2°55.179 19.535053 0.058595 0.32236 -0.74754
2004-07-12 06:32:38 51°14.309 2°55.163 19.532854 0.058595 0.322371 -0.74754
2004-07-12 06:32:44 51°14.322 2°55.14 19.532854 0.058595 0.322371 -0.74754
2004-07-12 06:32:48 51°14.331 2°55.124 19.528088 0.058595 0.322365 -0.781249
2004-07-12 06:32:54 51°14.346 2°55.101 19.530735 0.058595 0.322371 -0.74754
2004-07-12 06:32:59 51°14.357 2°55.083 19.54267 0.058595 0.322371 -0.74754
2004-07-12 06:33:04 51°14.37 2°55.064 19.523769 0.058595 0.322376 -0.74754
2004-07-12 06:33:09 51°14.383 2°55.047 19.573536 0.058595 0.322371 -0.74754
2004-07-12 06:33:13 51°14.394 2°55.035 19.573536 0.058595 0.322371 -0.74754
2004-07-12 06:33:19 51°14.411 2°55.018 19.528536 0.058595 0.322376 -0.74754
2004-07-12 06:33:24 51°14.425 2°55.003 19.546824 0.058595 0.322381 -0.74754
2004-07-12 06:33:29 51°14.439 2°54.988 19.558431 0.058595 0.322386 -0.781249
2004-07-12 06:33:34 51°14.454 2°54.973 19.560548 0.058595 0.322397 -0.74754
2004-07-12 06:33:39 51°14.469 2°54.957 19.560222 0.058595 0.322402 -0.74754
2004-07-12 06:33:44 51°14.483 2°54.942 19.560222 0.058595 0.322402 -0.74754
2004-07-12 06:33:46 51°14.489 2°54.935 19.555702 0.058595 0.322397 -0.71383
2004-07-12 06:33:54 51°14.513 2°54.91 19.594906 0.058595 0.322397 -0.781249
2004-07-12 06:33:57 51°14.522 2°54.901 19.552648 0.058595 0.322402 -0.74754
2004-07-12 06:34:04 51°14.544 2°54.879 19.556069 0.058595 0.322397 -0.781249
2004-07-12 06:34:09 51°14.559 2°54.863 19.554318 0.058595 0.322407 -0.74754
2004-07-12 06:34:14 51°14.574 2°54.847 19.554318 0.058595 0.322407 -0.74754
2004-07-12 06:34:19 51°14.589 2°54.831 19.570768 0.058595 0.322407 -0.781249
2004-07-12 06:34:24 51°14.605 2°54.816 19.561281 0.058595 0.322423 -0.781249
2004-07-12 06:34:28 51°14.617 2°54.804 19.551589 0.058595 0.322418 -0.781249
2004-07-12 06:34:34 51°14.636 2°54.785 19.595639 0.058595 0.322433 -0.74754
2004-07-12 06:34:38 51°14.648 2°54.773 19.554929 0.058595 0.322423 -0.74754
2004-07-12 06:34:44 51°14.666 2°54.754 19.554929 0.058595 0.322423 -0.74754
2004-07-12 06:34:49 51°14.681 2°54.738 19.548209 0.058595 0.322433 -0.71383
2004-07-12 06:34:53 51°14.694 2°54.726 19.571175 0.058595 0.322433 -0.74754
2004-07-12 06:34:57 51°14.706 2°54.713 19.553503 0.058595 0.322428 -0.74754
2004-07-12 06:35:04 51°14.727 2°54.691 19.55273 0.058595 0.322439 -0.74754
2004-07-12 06:35:09 51°14.743 2°54.675 19.548413 0.058595 0.322439 -0.74754
2004-07-12 06:35:14 51°14.758 2°54.66 19.548413 0.058595 0.322439 -0.74754
2004-07-12 06:35:16 51°14.764 2°54.654 19.569994 0.058595 0.322444 -0.781249
2004-07-12 06:35:24 51°14.789 2°54.629 19.559082 0.058595 0.322444 -0.781249
2004-07-12 06:35:28 51°14.801 2°54.616 19.576019 0.058595 0.322449 -0.71383
2004-07-12 06:35:34 51°14.82 2°54.598 19.560467 0.058595 0.322454 -0.781249
2004-07-12 06:35:38 51°14.832 2°54.585 19.57492 0.058595 0.322449 -0.74754
2004-07-12 06:35:44 51°14.85 2°54.567 19.57492 0.058595 0.322449 -0.74754
2004-07-12 06:35:49 51°14.865 2°54.552 19.554033 0.058595 0.322454 -0.74754
2004-07-12 06:35:53 51°14.878 2°54.539 19.556354 0.058595 0.32246 -0.781249
2004-07-12 06:35:57 51°14.89 2°54.527 19.580823 0.058595 0.322465 -0.74754
2004-07-12 06:36:04 51°14.911 2°54.504 19.555702 0.058595 0.32247 -0.781249
2004-07-12 06:36:09 51°14.927 2°54.49 19.592301 0.058595 0.322475 -0.781249
2004-07-12 06:36:14 51°14.942 2°54.474 19.592301 0.058595 0.322475 -0.781249
2004-07-12 06:36:20 51°14.96 2°54.456 19.563072 0.058699 0.323059 -0.71383
2004-07-12 06:36:24 51°14.972 2°54.443 19.557413 0.058595 0.322475 -0.74754
2004-07-12 06:36:28 51°14.984 2°54.43 19.575816 0.058595 0.322491 -0.74754
2004-07-12 06:36:34 51°15.002 2°54.412 19.560752 0.058595 0.322475 -0.74754
2004-07-12 06:36:36 51°15.008 2°54.405 19.569058 0.058595 0.322491 -0.781249
2004-07-12 06:36:44 51°15.032 2°54.38 19.569058 0.058595 0.322491 -0.781249
2004-07-12 06:36:47 51°15.041 2°54.371 19.571582 0.058595 0.322491 -0.71383
2004-07-12 06:36:54 51°15.063 2°54.35 19.590022 0.058595 0.322491 -0.71383
2004-07-12 06:36:56 51°15.069 2°54.344 19.563887 0.058595 0.322491 -0.781249
2004-07-12 06:37:04 51°15.093 2°54.319 19.558797 0.058595 0.322496 -0.74754
2004-07-12 06:37:07 51°15.103 2°54.31 19.583306 0.058595 0.322507 -0.781249
2004-07-12 06:37:14 51°15.124 2°54.288 19.583306 0.058595 0.322507 -0.781249
2004-07-12 06:37:19 51°15.14 2°54.273 19.529676 0.058283 0.320008 -0.781249
2004-07-12 06:37:24 51°15.155 2°54.257 19.495694 0.058179 0.319664 -0.680121
2004-07-12 06:37:29 51°15.17 2°54.242 18.126227 0.090408 0.506271 -0.74754
2004-07-12 06:37:34 51°15.186 2°54.226 17.695402 0.06005 0.332145 -0.17448
2004-07-12 06:37:38 51°15.198 2°54.213 17.573545 0.728459 4.54127 -0.14077
2004-07-12 06:37:44 51°15.216 2°54.195 17.573545 0.728459 4.54127 -0.14077
2004-07-12 06:37:48 51°15.229 2°54.182 17.534317 1.080168 6.929358 -0.275608
2004-07-12 06:37:54 51°15.247 2°54.163 17.458733 1.271381 8.324162 0.263742
2004-07-12 06:38:00 51°15.266 2°54.144 17.415241 2.158507 14.932505 1.275024
2004-07-12 06:38:04 51°15.278 2°54.131 17.376344 3.247399 23.60512 2.724529
2004-07-12 06:38:09 51°15.293 2°54.115 17.367603 3.997103 29.927097 2.522272
2004-07-12 06:38:14 51°15.308 2°54.098 17.367603 3.997103 29.927097 2.522272
2004-07-12 06:38:19 51°15.323 2°54.082 17.367057 4.162847 31.449106 2.151469
2004-07-12 06:38:24 51°15.338 2°54.067 17.363653 4.240564 32.191582 1.915503
2004-07-12 06:38:29 51°15.354 2°54.052 17.347513 4.287387 32.650645 1.645828
2004-07-12 06:38:34 51°15.369 2°54.036 17.335406 4.314386 32.935902 1.5447
2004-07-12 06:38:36 51°15.375 2°54.03 17.315601 4.324617 33.04988 1.275024
2004-07-12 06:38:44 51°15.4 2°54.006 17.315601 4.324617 33.04988 1.275024
2004-07-12 06:38:48 51°15.412 2°53.994 17.304498 4.33432 33.155404 1.5447
2004-07-12 06:38:54 51°15.431 2°53.975 17.292383 4.339277 33.211525 1.51099
2004-07-12 06:38:59 51°15.446 2°53.96 17.281402 4.347609 33.296001 1.443571
2004-07-12 06:39:04 51°15.461 2°53.945 17.275469 4.351511 33.342016 1.578409
2004-07-12 06:39:08 51°15.473 2°53.933 17.265622 4.355519 33.388976 1.477281
2004-07-12 06:39:12 51°15.485 2°53.921 17.265622 4.355519 33.388976 1.477281
2004-07-12 06:39:19 51°15.506 2°53.9 17.27042 4.359949 33.438994 1.443571
2004-07-12 06:39:24 51°15.522 2°53.884 17.253627 4.361953 33.468242 1.308734
2004-07-12 06:39:28 51°15.534 2°53.872 17.259898 4.361215 33.474579 1.241315
2004-07-12 06:39:32 51°15.546 2°53.86 17.26175 4.360266 33.473072 1.207606
2004-07-12 06:39:39 51°15.568 2°53.839 17.26579 4.360582 33.486056 1.173896
2004-07-12 06:39:44 51°15.583 2°53.825 17.26579 4.360582 33.486056 1.173896
2004-07-12 06:39:47 51°15.593 2°53.816 17.254595 4.358262 33.470963 1.140187
2004-07-12 06:39:54 51°15.615 2°53.796 17.257205 4.359844 33.48999 1.140187
2004-07-12 06:39:59 51°15.63 2°53.781 17.258594 4.352884 33.434428 1.106477
2004-07-12 06:40:04 51°15.646 2°53.766 17.25409 4.349192 33.405741 1.140187
2004-07-12 06:40:09 51°15.661 2°53.751 17.257078 4.344446 33.367394 1.173896
2004-07-12 06:40:14 51°15.677 2°53.737 17.257078 4.344446 33.367394 1.173896
2004-07-12 06:40:16 51°15.683 2°53.731 17.258636 4.345079 33.372225 1.106477
2004-07-12 06:40:24 51°15.708 2°53.707 17.257962 4.197229 32.110238 1.140187
2004-07-12 06:40:29 51°15.725 2°53.693 17.259435 4.344657 33.373423 1.173896
2004-07-12 06:40:34 51°15.74 2°53.679 17.257962 4.344552 33.372517 1.140187
2004-07-12 06:40:37 51°15.75 2°53.671 17.257205 4.346556 33.389125 1.140187
2004-07-12 06:40:44 51°15.773 2°53.653 17.257205 4.346556 33.389125 1.140187
2004-07-12 06:40:54 51°15.805 2°53.626 17.254469 4.353411 33.447411 1.140187
2004-07-12 06:40:59 51°15.821 2°53.613 17.251101 4.352989 33.443786 1.140187
2004-07-12 06:41:04 51°15.837 2°53.599 17.249838 4.354571 33.45617 1.106477
2004-07-12 06:41:06 51°15.843 2°53.594 17.249165 4.356048 33.473691 1.072768
2004-07-12 06:41:18 51°15.881 2°53.561 17.251101 4.35763 33.487891 1.072768
2004-07-12 06:41:22 51°15.894 2°53.55 17.250175 4.358895 33.501188 1.072768
2004-07-12 06:41:27 51°15.91 2°53.537 17.247355 4.360899 33.522045 1.140187
2004-07-12 06:41:32 51°15.926 2°53.523 17.251901 4.360161 33.516304 1.140187
2004-07-12 06:41:38 51°15.945 2°53.507 17.251901 4.360161 33.516304 1.140187
2004-07-12 06:41:42 51°15.959 2°53.496 17.246471 4.359528 33.512075 1.140187
2004-07-12 06:41:46 51°15.972 2°53.486 17.244366 4.358052 33.498777 1.140187
2004-07-12 06:41:53 51°15.995 2°53.467 17.23683 4.353517 33.461611 1.106477
2004-07-12 06:41:57 51°16.008 2°53.457 17.241461 4.351407 33.445295 1.173896
2004-07-12 06:42:03 51°16.028 2°53.441 17.238556 4.353939 33.467655 1.106477
2004-07-12 06:42:06 51°16.038 2°53.433 17.238556 4.353939 33.467655 1.106477
2004-07-12 06:42:13 51°16.061 2°53.414 17.235693 4.35088 33.440159 1.106477
2004-07-12 06:42:17 51°16.074 2°53.404 17.230261 4.342548 33.369167 1.140187
2004-07-12 06:42:21 51°16.086 2°53.393 17.233377 4.343076 33.376713 1.072768
2004-07-12 06:42:28 51°16.109 2°53.374 17.226472 4.347716 33.420214 1.039059
2004-07-12 06:42:33 51°16.125 2°53.361 17.216365 4.34508 33.399364 1.072768
2004-07-12 06:42:36 51°16.135 2°53.354 17.216365 4.34508 33.399364 1.072768
2004-07-12 06:42:42 51°16.154 2°53.339 17.217333 4.346029 33.411749 1.039059
2004-07-12 06:42:47 51°16.17 2°53.327 17.210174 4.347189 33.422326 1.039059
2004-07-12 06:42:53 51°16.19 2°53.312 17.208657 4.343709 33.392408 1.039059
2004-07-12 06:42:56 51°16.199 2°53.305 17.201202 4.340334 33.365813 1.039059
2004-07-12 06:43:02 51°16.219 2°53.289 17.191386 4.343498 33.397839 1.005349
2004-07-12 06:43:08 51°16.238 2°53.274 17.191386 4.343498 33.397839 1.005349
2004-07-12 06:43:13 51°16.255 2°53.261 17.193872 4.34508 33.416274 1.039059
2004-07-12 06:43:17 51°16.268 2°53.25 17.180052 4.34508 33.4199 1.039059
2004-07-12 06:43:22 51°16.284 2°53.237 17.165639 4.343603 33.408411 1.005349
2004-07-12 06:43:28 51°16.303 2°53.221 17.16075 4.345924 33.435623 1.005349
2004-07-12 06:43:33 51°16.319 2°53.208 17.148062 4.350564 33.479181 1.005349
2004-07-12 06:43:36 51°16.329 2°53.2 17.148062 4.350564 33.479181 1.005349
2004-07-12 06:43:42 51°16.349 2°53.185 17.147472 4.355521 33.52548 0.904221
2004-07-12 06:43:48 51°16.368 2°53.17 17.141654 4.360689 33.577261 0.836802
2004-07-12 06:43:53 51°16.384 2°53.158 17.134149 4.371447 33.677235 0.735674
2004-07-12 06:43:57 51°16.397 2°53.149 17.12833 4.380729 33.765174 0.634546
2004-07-12 06:44:01 51°16.41 2°53.139 17.13242 4.390854 33.859852 0.567127
2004-07-12 06:44:07 51°16.43 2°53.124 17.13242 4.390854 33.859852 0.567127
2004-07-12 06:44:13 51°16.449 2°53.11 17.129974 4.396655 33.91482 0.499708
2004-07-12 06:44:17 51°16.462 2°53.1 17.131577 4.400557 33.952195 0.499708
2004-07-12 06:44:23 51°16.481 2°53.086 17.13339 4.402456 33.974744 0.465999
2004-07-12 06:44:28 51°16.497 2°53.074 17.134739 4.40678 34.014555 0.39858
2004-07-12 06:44:32 51°16.51 2°53.064 17.135034 4.403405 33.989103 0.432289
2004-07-12 06:44:38 51°16.529 2°53.05 17.135034 4.403405 33.989103 0.432289
2004-07-12 06:44:43 51°16.545 2°53.039 17.136805 4.404038 33.997035 0.39858
2004-07-12 06:44:48 51°16.561 2°53.027 17.137353 4.39655 33.93236 0.364871
2004-07-12 06:44:53 51°16.577 2°53.015 17.142118 4.400241 33.965472 0.39858
2004-07-12 06:44:58 51°16.593 2°53.003 17.142919 4.394968 33.918084 0.39858
2004-07-12 06:45:03 51°16.608 2°52.991 17.145237 4.393491 33.906564 0.39858
2004-07-12 06:45:08 51°16.624 2°52.98 17.145237 4.393491 33.906564 0.39858
2004-07-12 06:45:13 51°16.64 2°52.968 17.142623 4.391803 33.89015 0.39858
2004-07-12 06:45:17 51°16.653 2°52.959 17.146966 4.385581 33.837046 0.465999
2004-07-12 06:45:22 51°16.669 2°52.947 17.14764 4.383682 33.820047 0.432289
2004-07-12 06:45:28 51°16.689 2°52.933 17.146081 4.378831 33.774504 0.465999
2004-07-12 06:45:33 51°16.705 2°52.922 17.145153 4.380834 33.791182 0.432289
2004-07-12 06:45:37 51°16.718 2°52.912 17.145153 4.380834 33.791182 0.432289
2004-07-12 06:45:43 51°16.737 2°52.9 17.145828 4.378409 33.769639 0.432289
2004-07-12 06:45:48 51°16.754 2°52.89 17.147556 4.376405 33.751739 0.432289
2004-07-12 06:45:50 51°16.761 2°52.885 17.150085 4.37419 33.732021 0.465999
2004-07-12 06:45:58 51°16.786 2°52.868 17.151519 4.372608 33.718986 0.465999
2004-07-12 06:46:02 51°16.799 2°52.859 17.153289 4.374506 33.731081 0.499708
2004-07-12 06:46:08 51°16.819 2°52.846 17.153289 4.374506 33.731081 0.499708
2004-07-12 06:46:12 51°16.832 2°52.837 17.153542 4.370709 33.700779 0.533418
2004-07-12 06:46:17 51°16.848 2°52.826 17.154765 4.371131 33.704417 0.465999
2004-07-12 06:46:23 51°16.867 2°52.813 17.153163 4.367229 33.668323 0.465999
2004-07-12 06:46:28 51°16.883 2°52.801 17.153163 4.369971 33.691358 0.533418
2004-07-12 06:46:32 51°16.896 2°52.792 17.155481 4.367334 33.668622 0.567127
2004-07-12 06:46:38 51°16.916 2°52.778 17.155481 4.367334 33.668622 0.567127
2004-07-12 06:46:41 51°16.926 2°52.771 17.157125 4.364276 33.641031 0.533418
2004-07-12 06:46:47 51°16.945 2°52.758 17.155776 4.363959 33.638304 0.533418
2004-07-12 06:46:52 51°16.961 2°52.747 17.154933 4.366596 33.659206 0.499708
2004-07-12 06:46:58 51°16.981 2°52.733 17.157125 4.36417 33.640732 0.533418
2004-07-12 06:47:03 51°16.997 2°52.721 17.155439 4.36069 33.608291 0.600836
2004-07-12 06:47:08 51°17.013 2°52.71 17.155439 4.36069 33.608291 0.600836
2004-07-12 06:47:13 51°17.03 2°52.698 17.15076 4.360268 33.605264 0.600836
2004-07-12 06:47:16 51°17.039 2°52.691 17.154765 4.357104 33.577994 0.567127
2004-07-12 06:47:23 51°17.062 2°52.675 17.153163 4.351514 33.529216 0.567127
2004-07-12 06:47:28 51°17.079 2°52.664 17.155692 4.351514 33.529216 0.634546
2004-07-12 06:47:33 51°17.096 2°52.653 17.156156 4.346979 33.490751 0.634546
2004-07-12 06:47:38 51°17.113 2°52.643 17.156156 4.346979 33.490751 0.634546
2004-07-12 06:47:43 51°17.13 2°52.633 17.155987 4.343393 33.462286 0.668255
2004-07-12 06:47:48 51°17.147 2°52.624 17.156366 4.340335 33.43594 0.668255
2004-07-12 06:47:53 51°17.164 2°52.614 17.154217 4.342022 33.448657 0.701965
2004-07-12 06:47:58 51°17.181 2°52.604 17.155313 4.34139 33.445631 0.634546
2004-07-12 06:48:03 51°17.198 2°52.594 17.153205 4.340124 33.433517 0.701965
2004-07-12 06:48:08 51°17.215 2°52.584 17.153205 4.340124 33.433517 0.701965
2004-07-12 06:48:13 51°17.232 2°52.573 17.151055 4.338964 33.421708 0.634546
2004-07-12 06:48:17 51°17.245 2°52.565 17.150549 4.332003 33.361768 0.668255
2004-07-12 06:48:22 51°17.262 2°52.555 17.151561 4.335062 33.388709 0.668255
2004-07-12 06:48:28 51°17.282 2°52.543 17.152952 4.333902 33.379324 0.735674
2004-07-12 06:48:32 51°17.295 2°52.535 17.154891 4.335378 33.392643 0.701965
2004-07-12 06:48:38 51°17.316 2°52.526 17.154891 4.335378 33.392643 0.701965
2004-07-12 06:48:43 51°17.333 2°52.519 17.154807 4.333374 33.376597 0.769383
2004-07-12 06:48:48 51°17.351 2°52.512 17.151898 4.330632 33.352986 0.735674
2004-07-12 06:48:53 51°17.368 2°52.506 17.149664 4.328734 33.338453 0.735674
2004-07-12 06:48:58 51°17.386 2°52.501 17.149959 4.328945 33.339665 0.735674
2004-07-12 06:49:03 51°17.404 2°52.495 17.146502 4.32905 33.338761 0.803093
2004-07-12 06:49:08 51°17.421 2°52.49 17.146502 4.32905 33.338761 0.803093
2004-07-12 06:49:13 51°17.439 2°52.484 17.148231 4.325148 33.305167 0.701965
2004-07-12 06:49:17 51°17.454 2°52.48 17.14802 4.326097 33.315149 0.836802
2004-07-12 06:49:21 51°17.468 2°52.475 17.151139 4.324832 33.300633 0.735674
2004-07-12 06:49:28 51°17.493 2°52.468 17.151519 4.322617 33.285188 0.769383
2004-07-12 06:49:32 51°17.508 2°52.464 17.150971 4.320508 33.268238 0.701965
2004-07-12 06:49:36 51°17.522 2°52.462 17.150971 4.320508 33.268238 0.701965
2004-07-12 06:49:42 51°17.544 2°52.459 17.151519 4.317977 33.248863 0.836802
2004-07-12 06:49:48 51°17.566 2°52.458 17.148821 4.316711 33.236765 0.769383
2004-07-12 06:49:53 51°17.584 2°52.458 17.149495 4.316922 33.23858 0.803093
2004-07-12 06:49:57 51°17.599 2°52.458 17.153078 4.318926 33.25643 0.769383
2004-07-12 06:50:03 51°17.62 2°52.458 17.15506 4.314707 33.217714 0.769383
2004-07-12 06:50:08 51°17.639 2°52.458 17.15506 4.314707 33.217714 0.769383
2004-07-12 06:50:12 51°17.653 2°52.46 17.159654 4.321457 33.273997 0.769383
2004-07-12 06:50:18 51°17.675 2°52.463 17.163785 4.316711 33.233754 0.701965
2004-07-12 06:50:23 51°17.694 2°52.465 17.168884 4.319875 33.263395 0.735674
2004-07-12 06:50:28 51°17.712 2°52.469 17.17057 4.314602 33.215602 0.701965
2004-07-12 06:50:33 51°17.731 2°52.472 17.173394 4.321773 33.277323 0.701965
2004-07-12 06:50:38 51°17.749 2°52.476 17.173394 4.321773 33.277323 0.701965
2004-07-12 06:50:43 51°17.767 2°52.481 17.176428 4.319559 33.257055 0.803093
2004-07-12 06:50:47 51°17.782 2°52.485 17.178788 4.321879 33.272804 0.769383
2004-07-12 06:50:53 51°17.803 2°52.493 17.181653 4.327152 33.315173 0.769383
2004-07-12 06:50:57 51°17.817 2°52.498 17.182538 4.331476 33.349977 0.769383
2004-07-12 06:51:03 51°17.839 2°52.508 17.182032 4.332741 33.356641 0.870512
2004-07-12 06:51:08 51°17.857 2°52.517 17.182032 4.332741 33.356641 0.870512
2004-07-12 06:51:13 51°17.875 2°52.526 17.179968 4.336433 33.387811 0.870512
2004-07-12 06:51:18 51°17.893 2°52.535 17.180726 4.334534 33.367239 0.803093
2004-07-12 06:51:20 51°17.9 2°52.538 17.180431 4.339385 33.407787 0.904221
2004-07-12 06:51:28 51°17.929 2°52.552 17.184265 4.340967 33.420194 0.904221
2004-07-12 06:51:33 51°17.947 2°52.561 17.185824 4.341495 33.425339 0.904221
2004-07-12 06:51:37 51°17.961 2°52.568 17.185824 4.341495 33.425339 0.904221
2004-07-12 06:51:42 51°17.979 2°52.576 17.187383 4.344553 33.449246 0.93793
2004-07-12 06:51:48 51°18.001 2°52.586 17.189027 4.34487 33.455605 0.904221
2004-07-12 06:51:52 51°18.015 2°52.594 17.19067 4.346346 33.467712 0.904221
2004-07-12 06:51:57 51°18.033 2°52.605 17.195388 4.350565 33.504645 1.005349
2004-07-12 06:52:02 51°18.05 2°52.617 17.197115 4.351408 33.507664 0.97164
2004-07-12 06:52:08 51°18.071 2°52.632 17.197115 4.351408 33.507664 0.97164
2004-07-12 06:52:12 51°18.084 2°52.643 17.198211 4.350776 33.503428 0.93793
2004-07-12 06:52:17 51°18.101 2°52.657 17.201202 4.356787 33.55277 1.005349
2004-07-12 06:52:23 51°18.121 2°52.674 17.205245 4.358897 33.569114 1.005349
2004-07-12 06:52:28 51°18.138 2°52.688 17.204277 4.360057 33.576066 1.072768
2004-07-12 06:52:33 51°18.154 2°52.702 17.206509 4.357631 33.553961 1.072768
2004-07-12 06:52:36 51°18.164 2°52.711 17.206509 4.357631 33.553961 1.072768
2004-07-12 06:52:43 51°18.187 2°52.731 17.209289 4.360795 33.578169 1.005349
2004-07-12 06:52:47 51°18.2 2°52.742 17.210089 4.363221 33.598451 1.039059
2004-07-12 06:52:53 51°18.22 2°52.76 17.213838 4.358264 33.551514 1.072768
2004-07-12 06:52:58 51°18.236 2°52.776 17.214722 4.364592 33.608434 1.039059
2004-07-12 06:53:03 51°18.252 2°52.793 17.217923 4.36533 33.610533 1.039059
2004-07-12 06:53:08 51°18.268 2°52.809 17.217923 4.36533 33.610533 1.039059
2004-07-12 06:53:13 51°18.284 2°52.826 17.217207 4.36649 33.620524 1.039059
2004-07-12 06:53:18 51°18.3 2°52.842 17.219144 4.366595 33.61839 1.039059
2004-07-12 06:53:22 51°18.313 2°52.856 17.219818 4.365752 33.6093 1.039059
2004-07-12 06:53:28 51°18.331 2°52.877 17.223692 4.366701 33.61869 1.005349
2004-07-12 06:53:33 51°18.345 2°52.897 17.226388 4.366279 33.610799 1.005349
2004-07-12 06:53:38 51°18.36 2°52.917 17.226388 4.366279 33.610799 1.005349
2004-07-12 06:53:42 51°18.371 2°52.933 17.223482 4.366701 33.613215 1.039059
2004-07-12 06:53:48 51°18.388 2°52.958 17.223398 4.368177 33.624711 1.005349
2004-07-12 06:53:53 51°18.402 2°52.98 17.225419 4.362904 33.5781 0.97164
2004-07-12 06:53:58 51°18.415 2°53.001 17.228493 4.367017 33.612899 0.97164
2004-07-12 06:54:00 51°18.421 2°53.01 17.229377 4.367122 33.611374 0.97164
2004-07-12 06:54:08 51°18.442 2°53.045 17.229377 4.367122 33.611374 0.97164
2004-07-12 06:54:13 51°18.456 2°53.066 17.228535 4.364697 33.589279 0.97164
2004-07-12 06:54:17 51°18.467 2°53.083 17.229377 4.366279 33.603504 0.93793
2004-07-12 06:54:22 51°18.481 2°53.104 17.23123 4.365751 33.598357 0.93793
2004-07-12 06:54:28 51°18.497 2°53.131 17.231314 4.364169 33.582918 0.870512
2004-07-12 06:54:33 51°18.51 2°53.152 17.23363 4.367439 33.609234 0.870512
2004-07-12 06:54:37 51°18.521 2°53.169 17.23363 4.367439 33.609234 0.870512
2004-07-12 06:54:42 51°18.535 2°53.19 17.234893 4.363009 33.573541 0.904221
2004-07-12 06:54:48 51°18.552 2°53.216 17.232872 4.360583 33.550846 0.904221
2004-07-12 06:54:53 51°18.566 2°53.237 17.233083 4.363958 33.580495 0.870512
2004-07-12 06:54:57 51°18.577 2°53.254 17.234598 4.364908 33.586235 0.836802
2004-07-12 06:55:02 51°18.591 2°53.276 17.233925 4.363958 33.578673 0.870512
2004-07-12 06:55:08 51°18.608 2°53.301 17.233925 4.363958 33.578673 0.870512
2004-07-12 06:55:13 51°18.622 2°53.322 17.235398 4.363326 33.571406 0.836802
2004-07-12 06:55:17 51°18.633 2°53.34 17.236451 4.362587 33.56384 0.769383
2004-07-12 06:55:23 51°18.65 2°53.366 17.236998 4.362271 33.561724 0.769383
2004-07-12 06:55:28 51°18.664 2°53.387 17.236535 4.361533 33.552945 0.769383
2004-07-12 06:55:33 51°18.678 2°53.408 17.237882 4.35974 33.53752 0.769383
2004-07-12 06:55:37 51°18.689 2°53.425 17.237882 4.35974 33.53752 0.769383
2004-07-12 06:55:42 51°18.702 2°53.448 17.238851 4.357525 33.519074 0.803093
2004-07-12 06:55:47 51°18.715 2°53.47 17.236325 4.359107 33.530258 0.803093
2004-07-12 06:55:52 51°18.728 2°53.493 17.239061 4.357103 33.513021 0.701965
2004-07-12 06:55:56 51°18.738 2°53.511 17.238388 4.353833 33.483084 0.701965
2004-07-12 06:56:03 51°18.756 2°53.543 17.237335 4.351619 33.465853 0.701965
2004-07-12 06:56:08 51°18.769 2°53.566 17.237335 4.351619 33.465853 0.701965
2004-07-12 06:56:13 51°18.781 2°53.589 17.237588 4.35183 33.467667 0.735674
2004-07-12 06:56:18 51°18.794 2°53.612 17.238388 4.354466 33.490343 0.769383
2004-07-12 06:56:23 51°18.807 2°53.634 17.238388 4.352779 33.47462 0.735674
2004-07-12 06:56:27 51°18.817 2°53.653 17.240787 4.348771 33.441366 0.769383
2004-07-12 06:56:33 51°18.832 2°53.681 17.240114 4.346873 33.425044 0.769383
2004-07-12 06:56:38 51°18.845 2°53.704 17.240114 4.346873 33.425044 0.769383
2004-07-12 06:56:44 51°18.86 2°53.732 17.240408 4.341178 33.374875 0.735674
2004-07-12 06:56:48 51°18.87 2°53.751 17.241377 4.341599 33.379105 0.668255
2004-07-12 06:56:53 51°18.883 2°53.774 17.242429 4.343287 33.392403 0.735674
2004-07-12 06:56:58 51°18.895 2°53.797 17.243692 4.343603 33.39452 0.735674
2004-07-12 06:57:04 51°18.91 2°53.825 17.244155 4.346978 33.422325 0.836802
2004-07-12 06:57:08 51°18.92 2°53.844 17.244155 4.346978 33.422325 0.836802
2004-07-12 06:57:13 51°18.933 2°53.866 17.242934 4.340545 33.368229 0.735674
2004-07-12 06:57:16 51°18.94 2°53.88 17.24184 4.312386 33.125731 0.735674
2004-07-12 06:57:23 51°18.958 2°53.912 17.242429 4.309011 33.096159 0.735674
2004-07-12 06:57:28 51°18.971 2°53.935 17.241545 4.333268 33.30268 0.735674
2004-07-12 06:57:32 51°18.981 2°53.954 17.242892 4.334744 33.314764 0.735674
2004-07-12 06:57:36 51°18.991 2°53.971 17.242892 4.334744 33.314764 0.735674
2004-07-12 06:57:42 51°19.006 2°53.999 17.242724 4.340545 33.36642 0.769383
2004-07-12 06:57:48 51°19.02 2°54.027 17.243987 4.339068 33.353127 0.735674
2004-07-12 06:57:53 51°19.032 2°54.051 17.245545 4.324198 33.224765 0.701965
2004-07-12 06:57:56 51°19.038 2°54.067 17.246555 4.308378 33.090727 0.735674
2004-07-12 06:58:02 51°19.052 2°54.096 17.246092 4.335061 33.31929 0.735674
2004-07-12 06:58:05 51°19.058 2°54.111 17.246092 4.335061 33.31929 0.735674
2004-07-12 06:58:14 51°19.077 2°54.158 17.246976 4.334533 33.313554 0.735674
2004-07-12 06:58:17 51°19.083 2°54.174 17.24946 4.331791 33.291198 0.735674
2004-07-12 06:58:24 51°19.097 2°54.211 17.246892 4.331158 33.284558 0.769383
2004-07-12 06:58:26 51°19.101 2°54.221 17.249838 4.329049 33.263431 0.769383
2004-07-12 06:58:34 51°19.116 2°54.263 17.24786 4.330315 33.273701 0.769383
2004-07-12 06:58:39 51°19.126 2°54.29 17.248912 4.327045 33.245618 0.701965
2004-07-12 06:58:44 51°19.136 2°54.315 17.248912 4.327045 33.245618 0.701965
2004-07-12 06:58:48 51°19.145 2°54.336 17.250259 4.329154 33.264337 0.735674
2004-07-12 06:58:54 51°19.157 2°54.368 17.248618 4.334744 33.31055 0.769383
2004-07-12 06:58:59 51°19.167 2°54.394 17.249207 4.333373 33.296966 0.803093
2004-07-12 06:59:04 51°19.177 2°54.42 17.252364 4.332424 33.29182 0.803093
2004-07-12 06:59:09 51°19.187 2°54.447 17.250428 4.32462 33.222984 0.769383
2004-07-12 06:59:13 51°19.195 2°54.468 17.250428 4.32462 33.222984 0.769383
2004-07-12 06:59:19 51°19.207 2°54.499 17.250175 4.333478 33.299677 0.803093
2004-07-12 06:59:24 51°19.217 2°54.525 17.253795 4.331475 33.279456 0.735674
2004-07-12 06:59:28 51°19.226 2°54.546 17.252364 4.329787 33.266165 0.803093
2004-07-12 06:59:34 51°19.238 2°54.579 17.2543 4.331475 33.280058 0.803093
2004-07-12 06:59:38 51°19.246 2°54.6 17.252743 4.329576 33.263752 0.803093
2004-07-12 06:59:44 51°19.257 2°54.633 17.252743 4.329576 33.263752 0.803093
2004-07-12 06:59:49 51°19.268 2°54.658 17.254679 4.32926 33.261035 0.803093
2004-07-12 06:59:54 51°19.277 2°54.684 17.255268 4.327783 33.246552 0.803093
2004-07-12 06:59:59 51°19.287 2°54.711 17.254805 4.321772 33.196132 0.803093
2004-07-12 07:00:04 51°19.297 2°54.737 17.254511 4.322194 33.197355 0.769383
2004-07-12 07:00:09 51°19.306 2°54.764 17.255774 4.333057 33.29124 0.836802
2004-07-12 07:00:14 51°19.317 2°54.788 17.255774 4.333057 33.29124 0.836802
2004-07-12 07:00:18 51°19.324 2°54.81 17.257499 4.333795 33.298785 0.769383
2004-07-12 07:00:24 51°19.337 2°54.84 17.258551 4.332635 33.287015 0.836802
2004-07-12 07:00:28 51°19.345 2°54.861 17.258383 4.333689 33.295472 0.803093
2004-07-12 07:00:34 51°19.358 2°54.893 17.258004 4.333689 33.294269 0.836802
2004-07-12 07:00:40 51°19.371 2°54.923 17.258636 4.333689 33.296074 0.803093
2004-07-12 07:00:44 51°19.379 2°54.944 17.258636 4.333689 33.296074 0.803093
2004-07-12 07:00:48 51°19.387 2°54.965 17.258594 4.333795 33.295777 0.836802
2004-07-12 07:00:53 51°19.397 2°54.991 17.261077 4.333162 33.289139 0.870512
2004-07-12 07:01:00 51°19.41 2°55.029 17.260109 4.333162 33.287936 0.769383
2004-07-12 07:01:04 51°19.418 2°55.05 17.259014 4.332846 33.286421 0.803093
2004-07-12 07:01:09 51°19.428 2°55.076 17.259688 4.333478 33.291856 0.836802
2004-07-12 07:01:14 51°19.438 2°55.102 17.259688 4.333478 33.291856 0.836802
2004-07-12 07:01:20 51°19.449 2°55.135 17.260403 4.332529 33.280698 0.870512
2004-07-12 07:01:24 51°19.458 2°55.156 17.258341 4.33274 33.281908 0.904221
2004-07-12 07:01:29 51°19.467 2°55.182 17.260277 4.332424 33.279191 0.803093
2004-07-12 07:01:33 51°19.475 2°55.203 17.260782 4.332845 33.284016 0.870512
2004-07-12 07:01:40 51°19.489 2°55.241 17.259814 4.331791 33.274959 0.803093
2004-07-12 07:01:44 51°19.497 2°55.262 17.259814 4.331791 33.274959 0.803093
2004-07-12 07:01:49 51°19.506 2°55.289 17.258425 4.331158 33.271328 0.836802
2004-07-12 07:01:54 51°19.516 2°55.315 17.257962 4.332529 33.278894 0.803093
2004-07-12 07:01:59 51°19.526 2°55.342 17.259099 4.330314 33.258675 0.904221
2004-07-12 07:02:04 51°19.536 2°55.369 17.258088 4.329787 33.257752 0.870512
2004-07-12 07:02:08 51°19.544 2°55.39 17.258467 4.329365 33.253529 0.870512
2004-07-12 07:02:14 51°19.556 2°55.422 17.258467 4.329365 33.253529 0.870512
2004-07-12 07:02:19 51°19.566 2°55.448 17.260403 4.328838 33.249001 0.904221
2004-07-12 07:02:24 51°19.575 2°55.476 17.261708 4.329049 33.250812 0.870512
2004-07-12 07:02:28 51°19.583 2°55.497 17.25994 4.327889 33.241451 0.836802
2004-07-12 07:02:34 51°19.596 2°55.529 17.258551 4.325358 33.219719 0.870512
2004-07-12 07:02:39 51°19.606 2°55.555 17.259688 4.32715 33.232111 0.836802
2004-07-12 07:02:44 51°19.616 2°55.582 17.259688 4.32715 33.232111 0.836802
2004-07-12 07:02:48 51°19.624 2°55.604 17.260572 4.326518 33.227279 0.904221
2004-07-12 07:02:54 51°19.635 2°55.636 17.261161 4.324725 33.218487 0.870512
2004-07-12 07:02:59 51°19.645 2°55.663 17.257583 4.325568 33.22033 0.870512
2004-07-12 07:03:04 51°19.655 2°55.69 17.258046 4.325358 33.216719 0.836802
2004-07-12 07:03:09 51°19.664 2°55.717 17.259267 4.324725 33.211287 0.870512
2004-07-12 07:03:13 51°19.672 2°55.737 17.259267 4.324725 33.211287 0.870512
2004-07-12 07:03:19 51°19.683 2°55.77 17.258341 4.322932 33.195897 0.836802
2004-07-12 07:03:24 51°19.694 2°55.796 17.259814 4.322932 33.197096 0.904221
2004-07-12 07:03:28 51°19.701 2°55.818 17.262424 4.321561 33.183529 0.93793
2004-07-12 07:03:34 51°19.712 2°55.848 17.260067 4.322721 33.195285 0.870512
2004-07-12 07:03:37 51°19.718 2°55.864 17.262382 4.322405 33.194368 0.93793
2004-07-12 07:03:44 51°19.731 2°55.901 17.262382 4.322405 33.194368 0.93793
2004-07-12 07:03:49 51°19.74 2°55.928 17.261834 4.323354 33.200118 0.93793
2004-07-12 07:03:54 51°19.751 2°55.955 17.260193 4.314706 33.127092 0.870512
2004-07-12 07:03:59 51°19.759 2°55.982 17.261161 4.315233 33.133412 0.870512
2004-07-12 07:04:04 51°19.769 2°56.009 17.260067 4.319873 33.170844 0.93793
2004-07-12 07:04:08 51°19.776 2°56.031 17.260361 4.318608 33.159382 0.97164
2004-07-12 07:04:14 51°19.786 2°56.065 17.260361 4.318608 33.159382 0.97164
2004-07-12 07:04:18 51°19.794 2°56.086 17.259309 4.315128 33.129515 0.870512
2004-07-12 07:04:24 51°19.804 2°56.119 17.258762 4.32019 33.169964 0.904221
2004-07-12 07:04:28 51°19.812 2°56.141 17.260277 4.319768 33.168141 0.93793
2004-07-12 07:04:34 51°19.823 2°56.174 17.259772 4.317975 33.154551 1.005349
2004-07-12 07:04:39 51°19.832 2°56.202 17.260656 4.315655 33.131646 0.93793
2004-07-12 07:04:44 51°19.841 2°56.229 17.260656 4.315655 33.131646 0.93793
2004-07-12 07:04:49 51°19.85 2°56.257 17.260361 4.313968 33.120158 0.870512
2004-07-12 07:04:53 51°19.858 2°56.279 17.261708 4.316604 33.140988 0.904221
2004-07-12 07:04:59 51°19.869 2°56.312 17.260067 4.316393 33.137383 0.904221
2004-07-12 07:05:04 51°19.879 2°56.337 17.260109 4.318608 33.158784 0.904221
2004-07-12 07:05:08 51°19.885 2°56.36 17.263097 4.319135 33.163908 0.870512
2004-07-12 07:05:14 51°19.897 2°56.391 17.263097 4.319135 33.163908 0.870512
2004-07-12 07:05:20 51°19.908 2°56.424 17.260866 4.318292 33.156667 0.93793
2004-07-12 07:05:24 51°19.915 2°56.446 17.259982 4.310276 33.087291 0.870512
2004-07-12 07:05:28 51°19.923 2°56.467 17.25973 4.313968 33.117765 0.93793
2004-07-12 07:05:34 51°19.934 2°56.5 17.260572 4.313862 33.116861 0.870512
2004-07-12 07:05:39 51°19.943 2°56.527 17.259393 4.309855 33.083671 0.97164
2004-07-12 07:05:44 51°19.952 2°56.555 17.259393 4.309855 33.083671 0.97164
2004-07-12 07:05:49 51°19.961 2°56.583 17.260193 4.315866 33.135252 0.93793
2004-07-12 07:05:54 51°19.971 2°56.61 17.258762 4.310804 33.088827 0.904221
2004-07-12 07:05:59 51°19.98 2°56.638 17.258551 4.316499 33.138288 0.904221
2004-07-12 07:06:04 51°19.99 2°56.666 17.259014 4.206508 32.197628 0.93793
2004-07-12 07:06:08 51°19.997 2°56.688 17.260572 4.197545 32.121634 0.904221
2004-07-12 07:06:14 51°20.009 2°56.72 17.260572 4.197545 32.121634 0.904221
2004-07-12 07:06:20 51°20.02 2°56.754 17.258846 4.19396 32.091011 0.870512
2004-07-12 07:06:24 51°20.028 2°56.775 17.257794 4.272417 32.762113 0.870512
2004-07-12 07:06:29 51°20.036 2°56.804 17.258173 4.197334 32.122731 0.836802
2004-07-12 07:06:34 51°20.046 2°56.832 17.257078 4.230867 32.40938 0.836802
2004-07-12 07:06:40 51°20.056 2°56.864 17.256152 4.244049 32.521575 0.870512
2004-07-12 07:06:44 51°20.064 2°56.887 17.256152 4.244049 32.521575 0.870512
2004-07-12 07:06:49 51°20.073 2°56.914 17.256447 4.256387 32.62778 0.93793
2004-07-12 07:06:54 51°20.083 2°56.941 17.257499 4.231922 32.41723 0.836802
2004-07-12 07:06:58 51°20.091 2°56.963 17.25611 4.264929 32.701521 0.904221
2004-07-12 07:07:04 51°20.102 2°56.995 17.255479 4.199232 32.138946 0.870512
2004-07-12 07:07:09 51°20.112 2°57.023 17.256994 4.197967 32.129296 0.870512
2004-07-12 07:07:14 51°20.121 2°57.05 17.256994 4.197967 32.129296 0.870512
2004-07-12 07:07:19 51°20.131 2°57.077 17.253164 4.257231 32.634414 0.870512
2004-07-12 07:07:23 51°20.139 2°57.099 17.253921 4.245525 32.53421 0.870512
2004-07-12 07:07:28 51°20.148 2°57.126 17.255731 4.256176 32.626563 0.836802
2004-07-12 07:07:34 51°20.159 2°57.16 17.255142 4.224646 32.354415 0.904221
2004-07-12 07:07:38 51°20.166 2°57.182 17.253543 4.202185 32.164753 0.870512
2004-07-12 07:07:44 51°20.178 2°57.214 17.253543 4.202185 32.164753 0.870512
2004-07-12 07:07:48 51°20.185 2°57.236 17.253416 4.212203 32.251529 0.803093
2004-07-12 07:07:53 51°20.194 2°57.264 17.25409 4.250904 32.58142 0.870512
2004-07-12 07:07:59 51°20.206 2°57.297 17.251775 4.15368 31.751273 0.836802
2004-07-12 07:08:04 51°20.215 2°57.324 17.250722 4.159795 31.803436 0.836802
2004-07-12 07:08:09 51°20.224 2°57.352 17.254595 4.162115 31.8238 0.870512
2004-07-12 07:08:14 51°20.234 2°57.378 17.254595 4.162115 31.8238 0.870512
2004-07-12 07:08:19 51°20.243 2°57.406 17.245039 4.155367 31.766808 0.904221
2004-07-12 07:08:24 51°20.252 2°57.434 17.236998 4.246685 32.545901 0.870512
2004-07-12 07:08:29 51°20.262 2°57.461 17.22184 4.251536 32.589191 0.803093
2004-07-12 07:08:34 51°20.271 2°57.488 17.2119 4.220322 32.319781 0.904221
2004-07-12 07:08:39 51°20.281 2°57.515 17.199517 4.240569 32.492382 0.836802
2004-07-12 07:08:44 51°20.291 2°57.542 17.199517 4.240569 32.492382 0.836802
2004-07-12 07:08:49 51°20.3 2°57.57 17.199137 4.190375 32.06676 0.836802
2004-07-12 07:08:54 51°20.31 2°57.597 17.196821 4.208512 32.227547 0.769383
2004-07-12 07:08:58 51°20.317 2°57.619 17.192523 4.229391 32.411382 0.836802
2004-07-12 07:09:04 51°20.328 2°57.652 17.193619 4.236351 32.479162 0.769383
2004-07-12 07:09:09 51°20.337 2°57.68 17.19522 4.237617 32.498218 0.769383
2004-07-12 07:09:14 51°20.346 2°57.707 17.19522 4.237617 32.498218 0.769383
2004-07-12 07:09:19 51°20.356 2°57.733 17.192102 4.16064 31.844546 0.769383
2004-07-12 07:09:24 51°20.365 2°57.761 17.191723 4.155578 31.804776 0.769383
2004-07-12 07:09:29 51°20.374 2°57.788 17.190922 4.198706 32.175104 0.735674
2004-07-12 07:09:34 51°20.384 2°57.815 17.189785 4.209673 32.275937 0.803093
2004-07-12 07:09:38 51°20.391 2°57.837 17.187763 4.224963 32.402168 0.769383
2004-07-12 07:09:44 51°20.403 2°57.871 17.187763 4.224963 32.402168 0.769383
2004-07-12 07:09:49 51°20.412 2°57.899 17.186962 4.213047 32.302486 0.803093
2004-07-12 07:09:54 51°20.422 2°57.926 17.190206 4.19143 32.118681 0.803093
2004-07-12 07:09:58 51°20.429 2°57.947 17.19345 4.214945 32.319319 0.870512
2004-07-12 07:10:04 51°20.441 2°57.979 17.193745 4.200815 32.201878 0.836802
2004-07-12 07:10:09 51°20.45 2°58.006 17.19741 4.204295 32.230491 0.803093
2004-07-12 07:10:14 51°20.459 2°58.034 17.19741 4.204295 32.230491 0.803093
2004-07-12 07:10:18 51°20.466 2°58.056 17.198548 4.162854 31.87786 0.769383
2004-07-12 07:10:24 51°20.477 2°58.088 17.199264 4.152415 31.786958 0.769383
2004-07-12 07:10:29 51°20.486 2°58.116 17.198379 4.205771 32.245459 0.803093
2004-07-12 07:10:33 51°20.493 2°58.137 17.199643 4.12479 31.549436 0.735674
2004-07-12 07:10:40 51°20.506 2°58.176 17.203518 4.136915 31.651186 0.769383
2004-07-12 07:10:44 51°20.514 2°58.198 17.203518 4.136915 31.651186 0.769383
2004-07-12 07:10:49 51°20.524 2°58.224 17.206509 4.177616 31.997091 0.735674
2004-07-12 07:10:54 51°20.533 2°58.252 17.206635 4.212836 32.297176 0.735674
2004-07-12 07:10:59 51°20.542 2°58.279 17.20832 4.122786 31.528357 0.769383
2004-07-12 07:11:04 51°20.551 2°58.307 17.206256 4.214101 32.308007 0.836802
2004-07-12 07:11:09 51°20.561 2°58.334 17.20554 4.193961 32.133355 0.836802
2004-07-12 07:11:13 51°20.568 2°58.356 17.20554 4.193961 32.133355 0.836802
2004-07-12 07:11:19 51°20.58 2°58.388 17.205245 4.177933 31.996325 0.769383
2004-07-12 07:11:24 51°20.588 2°58.417 17.206256 4.115616 31.462096 0.836802
2004-07-12 07:11:29 51°20.598 2°58.443 17.206635 4.196386 32.15003 0.870512
2004-07-12 07:11:34 51°20.608 2°58.47 17.207731 4.169813 31.922903 0.836802
2004-07-12 07:11:39 51°20.617 2°58.497 17.208236 4.214945 32.311723 0.803093
2004-07-12 07:11:44 51°20.627 2°58.525 17.208236 4.214945 32.311723 0.803093
2004-07-12 07:11:49 51°20.637 2°58.551 17.209879 4.107076 31.38703 0.836802
2004-07-12 07:11:53 51°20.644 2°58.574 17.210342 4.180885 32.018667 0.836802
2004-07-12 07:11:59 51°20.656 2°58.606 17.210089 4.205138 32.224308 0.735674
2004-07-12 07:12:04 51°20.664 2°58.634 17.211227 4.12964 31.5794 0.836802
2004-07-12 07:12:08 51°20.673 2°58.656 17.21169 4.108974 31.405473 0.836802
2004-07-12 07:12:14 51°20.683 2°58.689 17.21169 4.108974 31.405473 0.836802
2004-07-12 07:12:20 51°20.694 2°58.722 17.212111 4.186052 32.058197 0.803093
2004-07-12 07:12:24 51°20.701 2°58.745 17.212785 4.200815 32.184999 0.803093
2004-07-12 07:12:28 51°20.708 2°58.767 17.213248 4.202291 32.197043 0.836802
2004-07-12 07:12:34 51°20.719 2°58.8 17.215186 4.113507 31.44071 0.803093
2004-07-12 07:12:39 51°20.728 2°58.827 17.214975 4.10813 31.393746 0.836802
2004-07-12 07:12:44 51°20.737 2°58.855 17.214975 4.10813 31.393746 0.836802
2004-07-12 07:12:49 51°20.746 2°58.883 17.21906 4.162432 31.856401 0.836802
2004-07-12 07:12:54 51°20.755 2°58.911 17.218597 4.179303 32.000521 0.803093
2004-07-12 07:12:59 51°20.764 2°58.938 17.220408 4.198916 32.169348 0.803093
2004-07-12 07:13:04 51°20.773 2°58.965 17.221376 4.170762 31.92524 0.836802
2004-07-12 07:13:08 51°20.781 2°58.986 17.222134 4.106654 31.376634 0.803093
2004-07-12 07:13:14 51°20.791 2°59.02 17.222134 4.106654 31.376634 0.803093
2004-07-12 07:13:18 51°20.799 2°59.042 17.225166 4.163381 31.860475 0.836802
2004-07-12 07:13:24 51°20.809 2°59.075 17.224156 4.10697 31.378762 0.836802
2004-07-12 07:13:29 51°20.819 2°59.102 17.22205 4.18215 32.020222 0.870512
2004-07-12 07:13:34 51°20.829 2°59.129 17.221376 4.104123 31.351678 0.836802
2004-07-12 07:13:39 51°20.838 2°59.156 17.218176 4.14999 31.743292 0.870512
2004-07-12 07:13:44 51°20.847 2°59.184 17.218176 4.14999 31.743292 0.870512
2004-07-12 07:13:49 51°20.857 2°59.211 17.219734 4.105705 31.362884 0.870512
2004-07-12 07:13:54 51°20.867 2°59.238 17.218471 4.194382 32.121285 0.870512
2004-07-12 07:14:00 51°20.878 2°59.271 17.21885 4.207247 32.231864 0.803093
2004-07-12 07:14:04 51°20.886 2°59.293 17.219902 4.209356 32.248736 0.870512
2004-07-12 07:14:09 51°20.895 2°59.32 17.219818 4.13934 31.652432 0.803093
2004-07-12 07:14:14 51°20.905 2°59.347 17.219818 4.13934 31.652432 0.803093
2004-07-12 07:14:18 51°20.913 2°59.369 17.22285 4.199022 32.16153 0.870512
2004-07-12 07:14:24 51°20.924 2°59.401 17.22285 4.162221 31.845968 0.870512
2004-07-12 07:14:28 51°20.931 2°59.423 17.223398 4.112453 31.423208 0.870512
2004-07-12 07:14:34 51°20.942 2°59.456 17.22803 4.201025 32.179242 0.870512
2004-07-12 07:14:39 51°20.952 2°59.483 17.228409 4.177405 31.977369 0.803093
2004-07-12 07:14:44 51°20.961 2°59.51 17.228409 4.177405 31.977369 0.803093
2004-07-12 07:14:49 51°20.971 2°59.538 17.229209 4.197756 32.151293 0.870512
2004-07-12 07:14:54 51°20.98 2°59.565 17.23123 4.166122 31.882734 0.904221
2004-07-12 07:14:59 51°20.99 2°59.592 17.233167 4.194171 32.117741 0.904221
2004-07-12 07:15:04 51°20.999 2°59.62 17.233546 4.18679 32.051763 0.904221
2004-07-12 07:15:09 51°21.008 2°59.648 17.235272 4.146088 31.703703 0.904221
2004-07-12 07:15:14 51°21.017 2°59.676 17.235272 4.146088 31.703703 0.904221
2004-07-12 07:15:19 51°21.027 2°59.704 17.23704 4.148619 31.724719 0.904221
2004-07-12 07:15:24 51°21.036 2°59.732 17.237293 4.193328 32.108211 0.870512
2004-07-12 07:15:28 51°21.043 2°59.754 17.239819 4.201341 32.172065 0.870512
2004-07-12 07:15:34 51°21.054 2°59.787 17.241545 4.097059 31.28191 0.97164
2004-07-12 07:15:38 51°21.062 2°59.809 17.243861 4.126792 31.538594 0.870512
2004-07-12 07:15:44 51°21.073 2°59.843 17.243861 4.126792 31.538594 0.870512
2004-07-12 07:15:49 51°21.082 2°59.871 17.243398 4.198916 32.150754 0.870512
2004-07-12 07:15:53 51°21.09 2°59.892 17.246681 4.10096 31.312862 0.904221
2004-07-12 07:16:00 51°21.102 2°59.931 17.248533 4.194909 32.112448 0.93793
2004-07-12 07:16:04 51°21.11 2°59.953 17.25148 4.158425 31.800927 0.97164
2004-07-12 07:16:09 51°21.119 2°59.981 17.251901 4.175296 31.942042 0.93793
2004-07-12 07:16:14 51°21.128 3°0.008 17.251901 4.175296 31.942042 0.93793
2004-07-12 07:16:19 51°21.138 3°0.036 17.251817 4.189953 32.068368 0.93793
2004-07-12 07:16:24 51°21.147 3°0.064 17.253627 4.156 31.775646 0.904221
2004-07-12 07:16:29 51°21.156 3°0.091 17.254132 4.173609 31.924757 0.93793
2004-07-12 07:16:34 51°21.166 3°0.119 17.254132 4.13586 31.601636 0.93793
2004-07-12 07:16:39 51°21.175 3°0.147 17.256826 4.072703 31.061779 0.97164
2004-07-12 07:16:44 51°21.184 3°0.174 17.256826 4.072703 31.061779 0.97164
2004-07-12 07:16:48 51°21.192 3°0.197 17.25691 4.180357 31.978329 0.904221
2004-07-12 07:16:54 51°21.203 3°0.23 17.259014 4.151676 31.733615 0.97164
2004-07-12 07:16:59 51°21.213 3°0.257 17.260067 4.184786 32.014407 0.97164
2004-07-12 07:17:04 51°21.222 3°0.285 17.261245 4.164646 31.844241 0.97164
2004-07-12 07:17:08 51°21.23 3°0.307 17.261245 4.056783 30.922576 0.93793
2004-07-12 07:17:14 51°21.24 3°0.342 17.261245 4.056783 30.922576 0.93793
2004-07-12 07:17:19 51°21.251 3°0.369 17.262676 4.178565 31.958988 0.97164
2004-07-12 07:17:24 51°21.26 3°0.397 17.261961 4.074285 31.0713 0.93793
2004-07-12 07:17:28 51°21.268 3°0.419 17.264696 4.095055 31.246808 0.93793
2004-07-12 07:17:33 51°21.277 3°0.447 17.262971 4.166438 31.853786 1.039059
2004-07-12 07:17:39 51°21.289 3°0.481 17.263097 4.177405 31.946782 0.97164
2004-07-12 07:17:44 51°21.299 3°0.509 17.263097 4.177405 31.946782 0.97164
2004-07-12 07:17:49 51°21.308 3°0.537 17.264317 4.0513 30.872112 1.005349
2004-07-12 07:17:54 51°21.317 3°0.566 17.264528 4.132591 31.564095 1.005349
2004-07-12 07:18:00 51°21.329 3°0.599 17.26457 4.195858 32.10027 0.97164
2004-07-12 07:18:04 51°21.336 3°0.621 17.265875 4.178354 31.952575 0.93793
2004-07-12 07:18:09 51°21.345 3°0.649 17.265706 4.083563 31.144567 1.005349
2004-07-12 07:18:14 51°21.354 3°0.677 17.265706 4.083563 31.144567 1.005349
2004-07-12 07:18:19 51°21.364 3°0.705 17.268273 4.173714 31.912408 0.97164
2004-07-12 07:18:24 51°21.373 3°0.733 17.267726 4.188266 32.036603 1.039059
2004-07-12 07:18:26 51°21.377 3°0.744 17.268021 4.061106 30.953158 1.005349
2004-07-12 07:18:34 51°21.392 3°0.789 17.270336 4.070173 31.029633 1.005349
2004-07-12 07:18:39 51°21.401 3°0.817 17.270967 4.140921 31.630505 1.039059
2004-07-12 07:18:44 51°21.41 3°0.845 17.270967 4.140921 31.630505 1.039059
2004-07-12 07:18:48 51°21.418 3°0.867 17.270925 4.195014 32.09075 0.97164
2004-07-12 07:18:54 51°21.429 3°0.901 17.271303 4.143768 31.653622 1.005349
2004-07-12 07:18:59 51°21.438 3°0.929 17.273113 4.185313 32.00851 1.039059
2004-07-12 07:19:04 51°21.446 3°0.957 17.272482 4.118884 31.440546 1.039059
2004-07-12 07:19:09 51°21.455 3°0.985 17.274502 4.254383 32.597676 1.005349
2004-07-12 07:19:13 51°21.463 3°1.007 17.274502 4.254383 32.597676 1.005349
2004-07-12 07:19:19 51°21.474 3°1.042 17.273155 4.253961 32.592301 1.039059
2004-07-12 07:19:24 51°21.483 3°1.069 17.273029 4.254594 32.597127 1.039059
2004-07-12 07:19:28 51°21.491 3°1.092 17.27387 4.257231 32.61969 1.039059
2004-07-12 07:19:34 51°21.501 3°1.126 17.274964 4.255122 32.602817 1.072768
2004-07-12 07:19:39 51°21.511 3°1.154 17.275259 4.256914 32.615805 1.039059
2004-07-12 07:19:44 51°21.52 3°1.182 17.275259 4.256914 32.615805 1.039059
2004-07-12 07:19:49 51°21.529 3°1.21 17.276521 4.256809 32.614314 1.072768
2004-07-12 07:19:54 51°21.538 3°1.238 17.278247 4.254911 32.596894 1.072768
2004-07-12 07:19:59 51°21.548 3°1.265 17.280645 4.254278 32.593832 1.072768
2004-07-12 07:20:04 51°21.557 3°1.293 17.282707 4.256387 32.610704 1.072768
2004-07-12 07:20:09 51°21.566 3°1.321 17.284137 4.25354 32.585751 1.106477
2004-07-12 07:20:14 51°21.575 3°1.35 17.284137 4.25354 32.585751 1.106477
2004-07-12 07:20:18 51°21.582 3°1.372 17.283927 4.255121 32.593993 1.106477
2004-07-12 07:20:24 51°21.593 3°1.406 17.283716 4.255543 32.601131 1.072768
2004-07-12 07:20:28 51°21.6 3°1.428 17.282665 4.254067 32.587323 1.106477
2004-07-12 07:20:34 51°21.612 3°1.461 17.282959 4.25491 32.593365 1.140187
2004-07-12 07:20:38 51°21.62 3°1.483 17.281739 4.25143 32.563592 1.106477
2004-07-12 07:20:44 51°21.633 3°1.514 17.281739 4.25143 32.563592 1.106477
2004-07-12 07:20:48 51°21.642 3°1.535 17.28237 4.25375 32.582852 1.173896
2004-07-12 07:20:54 51°21.657 3°1.565 17.281991 4.25122 32.559438 1.140187
2004-07-12 07:20:58 51°21.666 3°1.584 17.279972 4.25491 32.589249 1.140187
2004-07-12 07:21:04 51°21.681 3°1.614 17.278667 4.253223 32.57599 1.140187
2004-07-12 07:21:09 51°21.694 3°1.637 17.277405 4.251852 32.571314 1.140187
2004-07-12 07:21:14 51°21.707 3°1.661 17.277405 4.251852 32.571314 1.140187
2004-07-12 07:21:17 51°21.715 3°1.674 17.273997 4.253012 32.576537 1.140187
2004-07-12 07:21:24 51°21.734 3°1.705 17.273113 4.251958 32.566927 1.173896
2004-07-12 07:21:29 51°21.748 3°1.727 17.272734 4.252063 32.566654 1.173896
2004-07-12 07:21:34 51°21.762 3°1.749 17.270883 4.2489 32.540767 1.106477
2004-07-12 07:21:38 51°21.774 3°1.764 17.270925 4.249743 32.553269 1.106477
2004-07-12 07:21:44 51°21.792 3°1.788 17.270925 4.249743 32.553269 1.106477
2004-07-12 07:21:49 51°21.807 3°1.807 17.269536 4.249849 32.552997 1.072768
2004-07-12 07:21:54 51°21.823 3°1.826 17.269368 4.248478 32.54303 1.072768
2004-07-12 07:21:59 51°21.838 3°1.844 17.269157 4.248372 32.540954 1.106477
2004-07-12 07:22:04 51°21.854 3°1.863 17.271346 4.249321 32.550248 1.072768
2004-07-12 07:22:09 51°21.87 3°1.881 17.271346 4.250587 32.561662 1.039059
2004-07-12 07:22:14 51°21.885 3°1.9 17.271346 4.250587 32.561662 1.039059
2004-07-12 07:22:18 51°21.897 3°1.916 17.271682 4.247318 32.537217 1.106477
2004-07-12 07:22:24 51°21.915 3°1.937 17.272355 4.247634 32.539336 1.072768
2004-07-12 07:22:29 51°21.931 3°1.957 17.273239 4.248162 32.544435 1.140187
2004-07-12 07:22:33 51°21.943 3°1.971 17.277026 4.244787 32.519085 1.106477
2004-07-12 07:22:38 51°21.959 3°1.99 17.2777 4.24426 32.510466 1.140187
2004-07-12 07:22:44 51°21.978 3°2.013 17.2777 4.24426 32.510466 1.140187
2004-07-12 07:22:48 51°21.99 3°2.028 17.279341 4.246474 32.53176 1.106477
2004-07-12 07:22:54 51°22.008 3°2.051 17.280855 4.247423 32.535183 1.140187
2004-07-12 07:22:58 51°22.02 3°2.067 17.283085 4.244787 32.512043 1.207606
2004-07-12 07:23:04 51°22.038 3°2.089 17.283927 4.247212 32.533379 1.173896
2004-07-12 07:23:09 51°22.053 3°2.108 17.285568 4.244576 32.508479 1.241315
2004-07-12 07:23:14 51°22.068 3°2.127 17.285568 4.244576 32.508479 1.241315
2004-07-12 07:23:17 51°22.078 3°2.139 17.286451 4.247001 32.528052 1.241315
2004-07-12 07:23:24 51°22.099 3°2.165 17.28683 4.246685 32.523586 1.275024
2004-07-12 07:23:29 51°22.114 3°2.185 17.288639 4.247423 32.528139 1.275024
2004-07-12 07:23:34 51°22.13 3°2.204 17.288302 4.247318 32.52665 1.308734
2004-07-12 07:23:38 51°22.142 3°2.219 17.289733 4.248267 32.533594 1.275024
2004-07-12 07:23:44 51°22.161 3°2.242 17.289733 4.248267 32.533594 1.275024
2004-07-12 07:23:49 51°22.175 3°2.262 17.292299 4.248899 32.537245 1.308734
2004-07-12 07:23:54 51°22.191 3°2.281 17.293856 4.248689 32.536028 1.207606
2004-07-12 07:23:58 51°22.203 3°2.297 17.294613 4.250903 32.554382 1.275024
2004-07-12 07:24:04 51°22.221 3°2.319 17.296253 4.252696 32.56678 1.342443
2004-07-12 07:24:09 51°22.236 3°2.339 17.296926 4.253645 32.576073 1.308734
2004-07-12 07:24:14 51°22.251 3°2.358 17.296926 4.253645 32.576073 1.308734
2004-07-12 07:24:17 51°22.261 3°2.369 17.297305 4.253856 32.575526 1.275024
2004-07-12 07:24:24 51°22.282 3°2.396 17.295959 4.254488 32.580938 1.308734
2004-07-12 07:24:29 51°22.297 3°2.415 17.297011 4.256808 32.598432 1.308734
2004-07-12 07:24:34 51°22.311 3°2.435 17.297305 4.257019 32.597884 1.275024
2004-07-12 07:24:38 51°22.323 3°2.45 17.300544 4.257441 32.603256 1.308734
2004-07-12 07:24:44 51°22.342 3°2.473 17.300544 4.257441 32.603256 1.308734
2004-07-12 07:24:49 51°22.357 3°2.491 17.301343 4.258918 32.61412 1.342443
2004-07-12 07:24:54 51°22.371 3°2.511 17.299997 4.261976 32.639692 1.376153
2004-07-12 07:24:58 51°22.384 3°2.526 17.299745 4.262398 32.645067 1.342443
2004-07-12 07:25:04 51°22.402 3°2.549 17.303741 4.262714 32.64954 1.308734
2004-07-12 07:25:09 51°22.417 3°2.568 17.304077 4.264507 32.661344 1.376153
2004-07-12 07:25:14 51°22.432 3°2.587 17.304077 4.264507 32.661344 1.376153
2004-07-12 07:25:17 51°22.441 3°2.598 17.303026 4.265245 32.667071 1.409862
2004-07-12 07:25:24 51°22.462 3°2.625 17.302858 4.265561 32.668599 1.409862
2004-07-12 07:25:29 51°22.477 3°2.645 17.302689 4.266194 32.673423 1.443571
2004-07-12 07:25:34 51°22.492 3°2.664 17.303446 4.267565 32.685153 1.477281
2004-07-12 07:25:38 51°22.504 3°2.68 17.30454 4.266088 32.671343 1.443571
2004-07-12 07:25:44 51°22.522 3°2.703 17.30454 4.266088 32.671343 1.443571
2004-07-12 07:25:49 51°22.537 3°2.722 17.303783 4.26767 32.683108 1.578409
2004-07-12 07:25:54 51°22.553 3°2.742 17.304708 4.268408 32.690013 1.477281
2004-07-12 07:25:58 51°22.565 3°2.758 17.305381 4.267987 32.689941 1.578409
2004-07-12 07:26:04 51°22.583 3°2.781 17.30433 4.26767 32.685465 1.5447
2004-07-12 07:26:09 51°22.598 3°2.8 17.304708 4.268303 32.688521 1.477281
2004-07-12 07:26:14 51°22.614 3°2.82 17.304708 4.268303 32.688521 1.477281
2004-07-12 07:26:17 51°22.623 3°2.832 17.305381 4.268092 32.685538 1.5447
2004-07-12 07:26:24 51°22.644 3°2.858 17.304498 4.268725 32.69213 1.5447
2004-07-12 07:26:29 51°22.659 3°2.878 17.304119 4.268514 32.691505 1.5447
2004-07-12 07:26:34 51°22.675 3°2.898 17.303362 4.267987 32.685815 1.578409
2004-07-12 07:26:38 51°22.686 3°2.914 17.305297 4.269041 32.695426 1.51099
2004-07-12 07:26:44 51°22.704 3°2.939 17.305297 4.269041 32.695426 1.51099
2004-07-12 07:26:49 51°22.718 3°2.959 17.303909 4.269252 32.695462 1.612118
2004-07-12 07:26:54 51°22.733 3°2.978 17.306349 4.269674 32.70025 1.5447
2004-07-12 07:26:59 51°22.747 3°2.998 17.304708 4.269568 32.697579 1.5447
2004-07-12 07:27:04 51°22.762 3°3.017 17.303783 4.269779 32.701742 1.51099
2004-07-12 07:27:09 51°22.777 3°3.036 17.304624 4.269885 32.700286 1.51099
2004-07-12 07:27:13 51°22.789 3°3.052 17.304624 4.269885 32.700286 1.51099
2004-07-12 07:27:19 51°22.807 3°3.075 17.306559 4.269463 32.699035 1.477281
2004-07-12 07:27:24 51°22.822 3°3.095 17.305676 4.269885 32.701465 1.51099
2004-07-12 07:27:29 51°22.837 3°3.114 17.309419 4.269358 32.696954 1.51099
2004-07-12 07:27:34 51°22.852 3°3.134 17.308452 4.269674 32.702019 1.477281
2004-07-12 07:27:39 51°22.867 3°3.153 17.309209 4.27231 32.721038 1.51099
2004-07-12 07:27:44 51°22.881 3°3.174 17.309209 4.27231 32.721038 1.51099
2004-07-12 07:27:48 51°22.893 3°3.189 17.310176 4.265245 32.660592 1.51099
2004-07-12 07:27:54 51°22.911 3°3.215 17.309125 4.270518 32.70511 1.477281
2004-07-12 07:27:59 51°22.927 3°3.234 17.310176 4.270623 32.705422 1.443571
2004-07-12 07:28:04 51°22.942 3°3.254 17.309924 4.271256 32.709656 1.443571
2004-07-12 07:28:09 51°22.957 3°3.274 17.308494 4.271045 32.707852 1.51099
2004-07-12 07:28:13 51°22.969 3°3.291 17.308494 4.271045 32.707852 1.51099
2004-07-12 07:28:19 51°22.988 3°3.315 17.3074 4.271678 32.712085 1.477281
2004-07-12 07:28:24 51°23.003 3°3.336 17.309251 4.271467 32.710871 1.443571
2004-07-12 07:28:28 51°23.015 3°3.351 17.307442 4.27231 32.717499 1.477281
2004-07-12 07:28:34 51°23.033 3°3.376 17.306937 4.272838 32.72201 1.477281
2004-07-12 07:28:38 51°23.046 3°3.392 17.307779 4.272943 32.723502 1.342443
2004-07-12 07:28:44 51°23.064 3°3.417 17.307779 4.272943 32.723502 1.342443
2004-07-12 07:28:49 51°23.079 3°3.437 17.308368 4.273154 32.727076 1.342443
2004-07-12 07:28:54 51°23.094 3°3.457 17.309251 4.273681 32.729818 1.275024
2004-07-12 07:28:58 51°23.106 3°3.473 17.311648 4.272416 32.725481 1.308734
2004-07-12 07:29:04 51°23.124 3°3.499 17.31148 4.259234 32.608006 1.241315
2004-07-12 07:29:09 51°23.139 3°3.518 17.310176 4.273576 32.730686 1.173896
2004-07-12 07:29:14 51°23.154 3°3.539 17.310176 4.273576 32.730686 1.173896
2004-07-12 07:29:18 51°23.166 3°3.555 17.311185 4.27347 32.729783 1.207606
2004-07-12 07:29:24 51°23.184 3°3.579 17.310891 4.272732 32.721107 1.140187
2004-07-12 07:29:29 51°23.199 3°3.599 17.310555 4.272627 32.720205 1.173896
2004-07-12 07:29:34 51°23.214 3°3.618 17.310891 4.274947 32.735924 1.173896
2004-07-12 07:29:39 51°23.228 3°3.639 17.313162 4.272627 32.720795 1.173896
2004-07-12 07:29:44 51°23.243 3°3.659 17.313162 4.272627 32.720795 1.173896
2004-07-12 07:29:49 51°23.258 3°3.679 17.313372 4.273998 32.730754 1.173896
2004-07-12 07:29:54 51°23.272 3°3.7 17.312784 4.272943 32.725272 1.140187
2004-07-12 07:29:58 51°23.284 3°3.715 17.311227 4.272838 32.72319 1.106477
2004-07-12 07:30:04 51°23.303 3°3.739 17.312237 4.273259 32.725029 1.140187
2004-07-12 07:30:08 51°23.314 3°3.755 17.311354 4.272627 32.719026 1.140187
2004-07-12 07:30:14 51°23.333 3°3.779 17.311354 4.272627 32.719026 1.140187
2004-07-12 07:30:20 51°23.351 3°3.803 17.311059 4.273259 32.722669 1.140187
2004-07-12 07:30:24 51°23.363 3°3.82 17.308914 4.272627 32.719615 1.140187
2004-07-12 07:30:29 51°23.378 3°3.84 17.308199 4.272627 32.719026 1.106477
2004-07-12 07:30:33 51°23.39 3°3.856 17.30719 4.272943 32.722912 1.072768
2004-07-12 07:30:39 51°23.408 3°3.88 17.305592 4.273154 32.724716 1.106477
2004-07-12 07:30:44 51°23.423 3°3.901 17.305592 4.273154 32.724716 1.106477
2004-07-12 07:30:48 51°23.435 3°3.918 17.306559 4.273365 32.725341 1.106477
2004-07-12 07:30:54 51°23.452 3°3.943 17.307484 4.272943 32.724092 1.106477
2004-07-12 07:30:59 51°23.466 3°3.963 17.306349 4.272205 32.717186 1.072768
2004-07-12 07:31:04 51°23.481 3°3.983 17.305676 4.272732 32.722877 1.039059
2004-07-12 07:31:09 51°23.496 3°4.002 17.30597 4.272943 32.728222 1.039059
2004-07-12 07:31:13 51°23.508 3°4.019 17.30597 4.272943 32.728222 1.039059
2004-07-12 07:31:19 51°23.526 3°4.042 17.304161 4.273049 32.725584 1.039059
2004-07-12 07:31:24 51°23.541 3°4.062 17.306054 4.273365 32.730061 1.039059
2004-07-12 07:31:28 51°23.553 3°4.077 17.304919 4.273892 32.733393 1.072768
2004-07-12 07:31:34 51°23.571 3°4.102 17.306222 4.273259 32.727979 1.005349
2004-07-12 07:31:37 51°23.58 3°4.114 17.305297 4.272627 32.724925 1.005349
2004-07-12 07:31:44 51°23.601 3°4.143 17.305297 4.272627 32.724925 1.005349
2004-07-12 07:31:49 51°23.616 3°4.163 17.304919 4.27347 32.730964 1.039059
2004-07-12 07:31:54 51°23.631 3°4.183 17.302437 4.273365 32.730061 1.039059
2004-07-12 07:31:59 51°23.646 3°4.203 17.304077 4.273681 32.733358 1.005349
2004-07-12 07:32:04 51°23.661 3°4.223 17.304498 4.272838 32.72496 1.005349
2004-07-12 07:32:08 51°23.673 3°4.239 17.302984 4.272416 32.72135 1.039059
2004-07-12 07:32:14 51°23.691 3°4.263 17.302984 4.272416 32.72135 1.039059
2004-07-12 07:32:18 51°23.703 3°4.28 17.302227 4.274209 32.7361 1.005349
2004-07-12 07:32:24 51°23.721 3°4.303 17.301427 4.274209 32.73787 0.93793
2004-07-12 07:32:29 51°23.736 3°4.324 17.300418 4.274947 32.743597 1.005349
2004-07-12 07:32:34 51°23.751 3°4.344 17.296926 4.274947 32.745368 0.93793
2004-07-12 07:32:38 51°23.763 3°4.36 17.296211 4.275263 32.748666 1.005349
2004-07-12 07:32:44 51°23.781 3°4.385 17.296211 4.275263 32.748666 1.005349
2004-07-12 07:32:49 51°23.796 3°4.405 17.291037 4.275896 32.752309 0.93793
2004-07-12 07:32:53 51°23.808 3°4.42 17.28704 4.275896 32.754671 0.904221
2004-07-12 07:32:58 51°23.823 3°4.439 17.284979 4.276318 32.758872 0.93793
2004-07-12 07:33:04 51°23.841 3°4.461 17.284432 4.277161 32.767865 0.904221
2004-07-12 07:33:09 51°23.857 3°4.479 17.284011 4.277478 32.77412 0.870512
2004-07-12 07:33:14 51°23.873 3°4.496 17.284011 4.277478 32.77412 0.870512
2004-07-12 07:33:18 51°23.886 3°4.511 17.283632 4.277478 32.772938 0.870512
2004-07-12 07:33:24 51°23.905 3°4.532 17.283338 4.278638 32.787007 0.870512
2004-07-12 07:33:29 51°23.921 3°4.55 17.283843 4.278111 32.784267 0.769383
2004-07-12 07:33:33 51°23.934 3°4.565 17.283801 4.278638 32.791147 0.701965
2004-07-12 07:33:39 51°23.952 3°4.585 17.281739 4.279482 32.798371 0.701965
2004-07-12 07:33:44 51°23.968 3°4.604 17.281739 4.279482 32.798371 0.701965
2004-07-12 07:33:49 51°23.984 3°4.621 17.282959 4.27906 32.795351 0.701965
2004-07-12 07:33:53 51°23.997 3°4.635 17.279888 4.278533 32.789653 0.701965
2004-07-12 07:33:58 51°24.013 3°4.652 17.280771 4.278533 32.790244 0.701965
2004-07-12 07:34:04 51°24.033 3°4.671 17.281318 4.279482 32.80133 0.634546
2004-07-12 07:34:09 51°24.049 3°4.688 17.279972 4.280325 32.806188 0.668255
2004-07-12 07:34:14 51°24.066 3°4.704 17.279972 4.280325 32.806188 0.668255
2004-07-12 07:34:19 51°24.082 3°4.719 17.280392 4.27906 32.795943 0.668255
2004-07-12 07:34:24 51°24.098 3°4.736 17.279509 4.281064 32.813693 0.668255
2004-07-12 07:34:28 51°24.111 3°4.749 17.283254 4.280009 32.808806 0.701965
2004-07-12 07:34:34 51°24.129 3°4.767 17.283548 4.281275 32.817276 0.701965
2004-07-12 07:34:37 51°24.139 3°4.776 17.281192 4.283067 32.833223 0.668255
2004-07-12 07:34:50 51°24.181 3°4.816 17.280855 4.285387 32.850724 0.668255
2004-07-12 07:34:52 51°24.187 3°4.822 17.277068 4.285598 32.853123 0.634546
2004-07-12 07:35:00 51°24.213 3°4.847 17.275974 4.285915 32.855241 0.634546
2004-07-12 07:35:05 51°24.23 3°4.862 17.276016 4.287813 32.870314 0.600836
2004-07-12 07:35:10 51°24.246 3°4.878 17.275091 4.288762 32.880224 0.634546
2004-07-12 07:35:14 51°24.259 3°4.89 17.272734 4.291504 32.906089 0.567127
2004-07-12 07:35:20 51°24.279 3°4.909 17.272734 4.291504 32.906089 0.567127
2004-07-12 07:35:24 51°24.292 3°4.921 17.275806 4.294773 32.934696 0.600836
2004-07-12 07:35:30 51°24.312 3°4.94 17.275091 4.297515 32.958194 0.567127
2004-07-12 07:35:34 51°24.325 3°4.953 17.275596 4.298992 32.972038 0.499708
2004-07-12 07:35:40 51°24.344 3°4.971 17.273407 4.301417 32.994615 0.533418
2004-07-12 07:35:45 51°24.361 3°4.987 17.274838 4.303316 33.010888 0.567127
2004-07-12 07:35:50 51°24.377 3°5.002 17.274838 4.303316 33.010888 0.567127
2004-07-12 07:35:53 51°24.387 3°5.011 17.273576 4.306901 33.04163 0.567127
2004-07-12 07:36:00 51°24.41 3°5.032 17.273828 4.308694 33.057003 0.533418
2004-07-12 07:36:05 51°24.426 3°5.048 17.272313 4.312702 33.087188 0.533418
2004-07-12 07:36:10 51°24.443 3°5.064 17.270504 4.313335 33.096796 0.533418
2004-07-12 07:36:15 51°24.459 3°5.08 17.272692 4.315233 33.113077 0.533418
2004-07-12 07:36:20 51°24.475 3°5.095 17.272692 4.315233 33.113077 0.533418
2004-07-12 07:36:25 51°24.492 3°5.11 17.272524 4.317237 33.130264 0.567127
2004-07-12 07:36:30 51°24.508 3°5.125 17.27185 4.319451 33.151655 0.499708
2004-07-12 07:36:35 51°24.524 3°5.141 17.274333 4.319873 33.156471 0.533418
2004-07-12 07:36:40 51°24.541 3°5.156 17.270883 4.32251 33.177295 0.499708
2004-07-12 07:36:44 51°24.554 3°5.168 17.273492 4.323775 33.188154 0.533418
2004-07-12 07:36:49 51°24.571 3°5.183 17.273492 4.323775 33.188154 0.533418
2004-07-12 07:36:55 51°24.591 3°5.2 17.273576 4.325146 33.199918 0.499708
2004-07-12 07:37:00 51°24.608 3°5.214 17.271514 4.324303 33.193877 0.533418
2004-07-12 07:37:05 51°24.625 3°5.227 17.272566 4.325146 33.199319 0.533418
2004-07-12 07:37:08 51°24.635 3°5.236 17.272945 4.326096 33.208062 0.533418
2004-07-12 07:37:15 51°24.659 3°5.255 17.273029 4.327361 33.218922 0.465999
2004-07-12 07:37:20 51°24.676 3°5.269 17.273029 4.327361 33.218922 0.465999
2004-07-12 07:37:24 51°24.689 3°5.28 17.271893 4.327256 33.218617 0.533418
2004-07-12 07:37:30 51°24.709 3°5.297 17.271303 4.329049 33.236403 0.465999
2004-07-12 07:37:34 51°24.722 3°5.309 17.269957 4.329681 33.238834 0.533418
2004-07-12 07:37:40 51°24.742 3°5.325 17.268905 4.329787 33.240339 0.533418
2004-07-12 07:37:44 51°24.756 3°5.336 17.270251 4.330525 33.246075 0.533418
2004-07-12 07:37:50 51°24.776 3°5.352 17.270251 4.330525 33.246075 0.533418
2004-07-12 07:37:55 51°24.793 3°5.366 17.265875 4.331158 33.250305 0.499708
2004-07-12 07:38:00 51°24.809 3°5.38 17.265706 4.331369 33.253316 0.533418
2004-07-12 07:38:04 51°24.823 3°5.39 17.266843 4.33158 33.257528 0.499708
2004-07-12 07:38:10 51°24.843 3°5.407 17.265201 4.331896 33.261445 0.465999
2004-07-12 07:38:15 51°24.86 3°5.42 17.260951 4.331791 33.259339 0.499708
2004-07-12 07:38:20 51°24.876 3°5.435 17.260951 4.331791 33.259339 0.499708
2004-07-12 07:38:25 51°24.894 3°5.448 17.259604 4.332951 33.271099 0.499708
2004-07-12 07:38:30 51°24.91 3°5.462 17.259898 4.333373 33.276523 0.533418
2004-07-12 07:38:35 51°24.927 3°5.475 17.260488 4.334216 33.282564 0.499708
2004-07-12 07:38:40 51°24.944 3°5.489 17.259141 4.333056 33.273806 0.533418
2004-07-12 07:38:44 51°24.957 3°5.499 17.259898 4.334638 33.286787 0.499708
2004-07-12 07:38:48 51°24.971 3°5.511 17.259898 4.334638 33.286787 0.499708
2004-07-12 07:38:54 51°24.991 3°5.527 17.258046 4.33506 33.294016 0.499708
2004-07-12 07:39:00 51°25.011 3°5.543 17.26175 4.335377 33.297935 0.499708
2004-07-12 07:39:04 51°25.024 3°5.554 17.25531 4.335482 33.298841 0.499708
2004-07-12 07:39:10 51°25.044 3°5.571 17.257205 4.336009 33.30397 0.533418
2004-07-12 07:39:14 51°25.058 3°5.582 17.253332 4.336431 33.30639 0.533418
2004-07-12 07:39:20 51°25.078 3°5.598 17.253332 4.336431 33.30639 0.533418
2004-07-12 07:39:25 51°25.094 3°5.612 17.250722 4.336537 33.303687 0.499708
2004-07-12 07:39:30 51°25.111 3°5.626 17.254132 4.336326 33.309695 0.499708
2004-07-12 07:39:33 51°25.121 3°5.634 17.24946 4.337486 33.317251 0.499708
2004-07-12 07:39:40 51°25.145 3°5.653 17.250554 4.337486 33.320862 0.499708
2004-07-12 07:39:45 51°25.161 3°5.667 17.251017 4.338119 33.326899 0.533418
2004-07-12 07:39:50 51°25.178 3°5.68 17.251017 4.338119 33.326899 0.533418
2004-07-12 07:39:55 51°25.195 3°5.694 17.253416 4.338013 33.329605 0.533418
2004-07-12 07:40:00 51°25.212 3°5.708 17.254216 4.338224 33.328407 0.567127
2004-07-12 07:40:05 51°25.228 3°5.721 17.254006 4.338541 33.334737 0.533418
2004-07-12 07:40:10 51°25.245 3°5.735 17.25712 4.338646 33.332632 0.533418
2004-07-12 07:40:15 51°25.261 3°5.749 17.258762 4.338857 33.335649 0.567127
2004-07-12 07:40:20 51°25.278 3°5.763 17.258762 4.338857 33.335649 0.567127
2004-07-12 07:40:25 51°25.294 3°5.778 17.260656 4.341915 33.358307 0.567127
2004-07-12 07:40:29 51°25.307 3°5.789 17.264823 4.339384 33.338371 0.499708
2004-07-12 07:40:34 51°25.323 3°5.803 17.26457 4.339595 33.338377 0.465999
2004-07-12 07:40:40 51°25.343 3°5.82 17.267053 4.340439 33.345624 0.499708
2004-07-12 07:40:44 51°25.356 3°5.831 17.267642 4.339384 33.334759 0.499708
2004-07-12 07:40:50 51°25.376 3°5.849 17.267642 4.339384 33.334759 0.499708
2004-07-12 07:40:55 51°25.392 3°5.864 17.270883 4.339806 33.33778 0.499708
2004-07-12 07:41:00 51°25.407 3°5.879 17.271682 4.339806 33.338382 0.465999
2004-07-12 07:41:05 51°25.423 3°5.896 17.27286 4.340755 33.341115 0.499708
2004-07-12 07:41:10 51°25.439 3°5.911 17.276311 4.341177 33.344737 0.499708
2004-07-12 07:41:15 51°25.455 3°5.928 17.277363 4.341388 33.347753 0.499708
2004-07-12 07:41:20 51°25.471 3°5.944 17.277363 4.341388 33.347753 0.499708
2004-07-12 07:41:24 51°25.483 3°5.957 17.275932 4.342443 33.350788 0.533418
2004-07-12 07:41:30 51°25.502 3°5.977 17.277952 4.34297 33.355919 0.533418
2004-07-12 07:41:35 51°25.517 3°5.995 17.280266 4.343181 33.357128 0.533418
2004-07-12 07:41:40 51°25.531 3°6.014 17.280308 4.343286 33.355624 0.567127
2004-07-12 07:41:45 51°25.546 3°6.033 17.281739 4.342548 33.349285 0.533418
2004-07-12 07:41:50 51°25.561 3°6.051 17.281739 4.342548 33.349285 0.533418
2004-07-12 07:41:55 51°25.575 3°6.071 17.283043 4.346872 33.382801 0.600836
2004-07-12 07:42:00 51°25.59 3°6.09 17.282076 4.345501 33.37163 0.600836
2004-07-12 07:42:05 51°25.603 3°6.112 17.28115 4.345606 33.371331 0.600836
2004-07-12 07:42:10 51°25.616 3°6.134 17.283085 4.345395 33.36952 0.600836
2004-07-12 07:42:14 51°25.626 3°6.153 17.284684 4.346556 33.377071 0.634546
2004-07-12 07:42:20 51°25.641 3°6.182 17.284684 4.346556 33.377071 0.634546
2004-07-12 07:42:25 51°25.652 3°6.207 17.28439 4.346766 33.377677 0.600836
2004-07-12 07:42:30 51°25.664 3°6.232 17.282791 4.345817 33.370733 0.567127
2004-07-12 07:42:34 51°25.672 3°6.253 17.283927 4.347399 33.383713 0.634546
2004-07-12 07:42:40 51°25.685 3°6.284 17.283043 4.347399 33.382508 0.668255
2004-07-12 07:42:44 51°25.693 3°6.305 17.28237 4.347294 33.381 0.634546
2004-07-12 07:42:50 51°25.705 3°6.338 17.28237 4.347294 33.381 0.634546
2004-07-12 07:42:53 51°25.711 3°6.355 17.282286 4.346977 33.378886 0.600836
2004-07-12 07:43:00 51°25.724 3°6.393 17.278247 4.348454 33.390961 0.701965
2004-07-12 07:43:05 51°25.734 3°6.42 17.278667 4.348032 33.389146 0.634546
2004-07-12 07:43:10 51°25.744 3°6.447 17.279299 4.348137 33.390052 0.668255
2004-07-12 07:43:15 51°25.755 3°6.474 17.280266 4.348559 33.392469 0.701965
2004-07-12 07:43:20 51°25.764 3°6.501 17.280266 4.348559 33.392469 0.701965
2004-07-12 07:43:25 51°25.774 3°6.528 17.278162 4.348665 33.392772 0.769383
2004-07-12 07:43:30 51°25.784 3°6.555 17.275848 4.348454 33.393372 0.769383
2004-07-12 07:43:35 51°25.795 3°6.582 17.274586 4.348981 33.398502 0.701965
2004-07-12 07:43:40 51°25.805 3°6.609 17.271682 4.349403 33.401522 0.668255
2004-07-12 07:43:45 51°25.815 3°6.636 17.269199 4.34877 33.39428 0.701965
2004-07-12 07:43:50 51°25.825 3°6.664 17.269199 4.34877 33.39428 0.701965
2004-07-12 07:43:54 51°25.834 3°6.685 17.267516 4.349087 33.400011 0.735674
2004-07-12 07:44:00 51°25.845 3°6.717 17.269157 4.349403 33.401522 0.803093
2004-07-12 07:44:05 51°25.856 3°6.744 17.266506 4.348665 33.400609 0.803093
2004-07-12 07:44:10 51°25.866 3°6.77 17.264149 4.349192 33.405138 0.803093
2004-07-12 07:44:15 51°25.876 3°6.798 17.26377 4.349509 33.411474 0.769383
2004-07-12 07:44:20 51°25.887 3°6.824 17.26377 4.349509 33.411474 0.769383